Provisional Data: Moose Creek near Plymptonville, PA


Please select a monitoring station.
Please select start date.
Please select start date.

Toggle Unit: C/F Toggle Unit: C/F
Sample Time Temperature (C) Temperature (F) Specific Conductivity (mS/cm) pH   Turbidity (NTU+) DO (mg/L)
8/24/2021 10:15:00 AM 0 32 0 6.83 0 11.85
8/24/2021 10:30:00 AM 15.32 59.576 0.092 6.83 1.83 10.46
8/24/2021 10:45:00 AM 15.37 59.666 0.092 6.78 1.72 10.46
8/24/2021 11:00:00 AM 15.43 59.774 0.092 6.72 1.71 10.45
8/24/2021 11:15:00 AM 15.5 59.9 0.092 6.75 1.71 10.45
8/24/2021 11:30:00 AM 15.57 60.026 0.092 6.72 1.63 10.43
8/24/2021 11:45:00 AM 15.66 60.188 0.092 6.76 1.68 10.4
8/24/2021 12:00:00 PM 15.75 60.35 0.092 6.77 1.62 10.38
8/24/2021 12:15:00 PM 15.84 60.512 0.092 6.75 1.72 10.35
8/24/2021 12:30:00 PM 15.95 60.71 0.092 6.77 1.7 10.33
8/24/2021 12:45:00 PM 16.06 60.908 0.092 6.78 1.81 10.31
8/24/2021 1:00:00 PM 16.16 61.088 0.092 6.76 1.68 10.29
8/24/2021 1:15:00 PM 16.25 61.25 0.092 6.78 1.84 10.27
8/24/2021 1:30:00 PM 16.32 61.376 0.092 6.75 1.68 10.25
8/24/2021 1:45:00 PM 16.39 61.502 0.092 6.78 1.7 10.23
8/24/2021 2:00:00 PM 16.45 61.61 0.092 6.77 1.79 10.22
8/24/2021 2:15:00 PM 16.5 61.7 0.092 6.79 1.92 10.21
8/24/2021 2:30:00 PM 16.55 61.79 0.093 6.77 1.71 10.19
8/24/2021 2:45:00 PM 16.58 61.844 0.093 6.77 1.84 10.18
8/24/2021 3:00:00 PM 16.61 61.898 0.093 6.78 1.77 10.18
8/24/2021 3:15:00 PM 16.62 61.916 0.093 6.74 1.74 10.17
8/24/2021 3:30:00 PM 16.65 61.97 0.093 6.78 1.82 10.16
8/24/2021 3:45:00 PM 16.65 61.97 0.093 6.74 1.72 10.16
8/24/2021 4:00:00 PM 16.64 61.952 0.093 6.75 1.84 10.16
8/24/2021 4:15:00 PM 16.65 61.97 0.093 6.78 1.79 10.16
8/24/2021 4:30:00 PM 16.66 61.988 0.093 6.75 1.81 10.16
8/24/2021 4:45:00 PM 16.66 61.988 0.093 6.76 1.84 10.15
8/24/2021 5:00:00 PM 16.67 62.006 0.093 6.73 1.79 10.16
8/24/2021 5:15:00 PM 16.65 61.97 0.093 6.75 1.71 10.15
8/24/2021 5:30:00 PM 16.62 61.916 0.094 6.71 1.68 10.16
8/24/2021 5:45:00 PM 16.59 61.862 0.094 6.71 1.73 10.16
8/24/2021 6:00:00 PM 16.56 61.808 0.094 6.72 1.78 10.17
8/24/2021 6:15:00 PM 16.53 61.754 0.094 6.69 1.62 10.17
8/24/2021 6:30:00 PM 16.49 61.682 0.094 6.69 1.67 10.18
8/24/2021 6:45:00 PM 16.45 61.61 0.094 6.72 1.75 10.19
8/24/2021 7:00:00 PM 16.4 61.52 0.094 6.71 1.69 10.21
8/24/2021 7:15:00 PM 16.35 61.43 0.094 6.72 1.67 10.22
8/24/2021 7:30:00 PM 16.31 61.358 0.094 6.74 1.75 10.23
8/24/2021 7:45:00 PM 16.26 61.268 0.094 6.72 1.77 10.24
8/24/2021 8:00:00 PM 16.22 61.196 0.094 6.7 1.68 10.25
8/24/2021 8:15:00 PM 16.18 61.124 0.094 6.69 1.87 10.26
8/24/2021 8:30:00 PM 16.15 61.07 0.094 6.71 1.72 10.27
8/24/2021 8:45:00 PM 16.12 61.016 0.094 6.73 1.77 10.28
8/24/2021 9:00:00 PM 16.08 60.944 0.094 6.72 1.74 10.28
8/24/2021 9:15:00 PM 16.05 60.89 0.094 6.73 1.73 10.29
8/24/2021 9:30:00 PM 16.02 60.836 0.094 6.75 1.73 10.3
8/24/2021 9:45:00 PM 15.98 60.764 0.094 6.76 1.81 10.31
8/24/2021 10:00:00 PM 15.95 60.71 0.094 6.74 1.63 10.31
8/24/2021 10:15:00 PM 15.91 60.638 0.094 6.74 1.57 10.32
8/24/2021 10:30:00 PM 15.88 60.584 0.094 6.73 1.57 10.33
8/24/2021 10:45:00 PM 15.84 60.512 0.094 6.72 1.59 10.34
8/24/2021 11:00:00 PM 15.81 60.458 0.094 6.74 1.58 10.35
8/24/2021 11:15:00 PM 15.78 60.404 0.094 6.74 1.65 10.36
8/24/2021 11:30:00 PM 15.75 60.35 0.094 6.73 1.55 10.37
8/24/2021 11:45:00 PM 15.72 60.296 0.094 6.76 1.69 10.38
8/25/2021 12:00:00 AM 15.68 60.224 0.094 6.72 1.55 10.38
8/25/2021 12:15:00 AM 15.65 60.17 0.093 6.77 1.58 10.4
8/25/2021 12:30:00 AM 15.61 60.098 0.093 6.72 1.67 10.41
8/25/2021 12:45:00 AM 15.58 60.044 0.093 6.74 1.53 10.41
8/25/2021 1:00:00 AM 15.54 59.972 0.093 6.73 1.69 10.42
8/25/2021 1:15:00 AM 15.51 59.918 0.093 6.74 1.71 10.43
8/25/2021 1:30:00 AM 15.48 59.864 0.093 6.75 1.56 10.44
8/25/2021 1:45:00 AM 15.44 59.792 0.093 6.73 1.62 10.45
8/25/2021 2:00:00 AM 15.41 59.738 0.093 6.77 1.72 10.45
8/25/2021 2:15:00 AM 15.38 59.684 0.093 6.74 1.52 10.46
8/25/2021 2:30:00 AM 15.35 59.63 0.093 6.77 1.63 10.46
8/25/2021 2:45:00 AM 15.32 59.576 0.093 6.73 1.57 10.46
8/25/2021 3:00:00 AM 15.29 59.522 0.093 6.76 1.61 10.47
8/25/2021 3:15:00 AM 15.26 59.468 0.093 6.74 1.48 10.48
8/25/2021 3:30:00 AM 15.24 59.432 0.093 6.74 1.59 10.49
8/25/2021 3:45:00 AM 15.21 59.378 0.093 6.74 1.61 10.49
8/25/2021 4:00:00 AM 15.19 59.342 0.093 6.76 1.6 10.5
8/25/2021 4:15:00 AM 15.17 59.306 0.093 6.75 1.5 10.51
8/25/2021 4:30:00 AM 15.15 59.27 0.093 6.73 1.5 10.52
8/25/2021 4:45:00 AM 15.12 59.216 0.093 6.74 1.56 10.52
8/25/2021 5:00:00 AM 15.1 59.18 0.093 6.74 1.53 10.52
8/25/2021 5:15:00 AM 15.09 59.162 0.093 6.74 1.63 10.53
8/25/2021 5:30:00 AM 15.06 59.108 0.093 6.74 1.52 10.54
8/25/2021 5:45:00 AM 15.04 59.072 0.093 6.77 1.56 10.54
8/25/2021 6:00:00 AM 15.02 59.036 0.093 6.76 1.57 10.54
8/25/2021 6:15:00 AM 15 59 0.093 6.73 1.61 10.55
8/25/2021 6:30:00 AM 14.98 58.964 0.093 6.73 1.47 10.56
8/25/2021 6:45:00 AM 14.97 58.946 0.093 6.76 1.56 10.56
8/25/2021 7:00:00 AM 14.95 58.91 0.093 6.72 1.62 10.57
8/25/2021 7:15:00 AM 14.93 58.874 0.093 6.73 1.61 10.58
8/25/2021 7:30:00 AM 14.92 58.856 0.093 6.74 1.57 10.58
8/25/2021 7:45:00 AM 14.92 58.856 0.093 6.73 1.62 10.58
8/25/2021 8:00:00 AM 14.91 58.838 0.093 6.75 1.69 10.58
8/25/2021 8:15:00 AM 14.92 58.856 0.093 6.74 1.53 10.58
8/25/2021 8:30:00 AM 14.92 58.856 0.093 6.72 1.63 10.58
8/25/2021 8:45:00 AM 14.94 58.892 0.093 6.74 1.55 10.58
8/25/2021 9:00:00 AM 14.96 58.928 0.093 6.71 1.76 10.57
8/25/2021 9:15:00 AM 14.99 58.982 0.093 6.72 1.57 10.57
8/25/2021 9:30:00 AM 15.01 59.018 0.093 6.73 1.62 10.57
8/25/2021 9:45:00 AM 15.04 59.072 0.093 6.69 1.56 10.56
8/25/2021 10:00:00 AM 15.08 59.144 0.093 6.69 1.62 10.54
8/25/2021 10:15:00 AM 15.13 59.234 0.093 6.69 1.57 10.53
8/25/2021 10:30:00 AM 15.17 59.306 0.093 6.72 1.51 10.52
8/25/2021 10:45:00 AM 15.23 59.414 0.093 6.7 1.56 10.51
8/25/2021 11:00:00 AM 15.31 59.558 0.093 6.68 1.5 10.49
8/25/2021 11:15:00 AM 15.38 59.684 0.093 6.7 1.58 10.48
8/25/2021 11:30:00 AM 15.46 59.828 0.093 6.68 1.47 10.46
8/25/2021 11:45:00 AM 15.57 60.026 0.093 6.7 1.67 10.44
8/25/2021 12:00:00 PM 15.69 60.242 0.093 6.72 1.77 10.42
8/25/2021 12:15:00 PM 15.83 60.494 0.093 6.7 1.62 10.38
8/25/2021 12:30:00 PM 15.97 60.746 0.093 6.7 1.57 10.33
8/25/2021 12:45:00 PM 16.08 60.944 0.093 6.7 1.65 10.31
8/25/2021 1:00:00 PM 16.14 61.052 0.094 6.71 1.74 10.31
8/25/2021 1:15:00 PM 16.19 61.142 0.094 6.74 1.76 10.3
8/25/2021 1:30:00 PM 16.17 61.106 0.094 6.7 1.62 10.29
8/25/2021 1:45:00 PM 16.12 61.016 0.094 6.69 1.6 10.3
8/25/2021 2:00:00 PM 16.09 60.962 0.094 6.68 1.68 10.3
8/25/2021 2:15:00 PM 16.07 60.926 0.094 6.66 1.71 10.31
8/25/2021 2:30:00 PM 16.05 60.89 0.094 6.65 1.68 10.31
8/25/2021 2:45:00 PM 16.05 60.89 0.094 6.66 1.75 10.29
8/25/2021 3:00:00 PM 16.07 60.926 0.094 6.65 1.6 10.3
8/25/2021 3:15:00 PM 16.09 60.962 0.094 6.66 1.67 10.29
8/25/2021 3:30:00 PM 16.1 60.98 0.095 6.64 1.66 10.29
8/25/2021 3:45:00 PM 16.1 60.98 0.095 6.64 1.63 10.29
8/25/2021 4:00:00 PM 16.09 60.962 0.095 6.64 1.56 10.29
8/25/2021 4:15:00 PM 16.08 60.944 0.095 6.63 1.58 10.29
8/25/2021 4:30:00 PM 16.08 60.944 0.095 6.63 1.58 10.29
8/25/2021 4:45:00 PM 16.07 60.926 0.095 6.64 1.56 10.29
8/25/2021 5:00:00 PM 16.07 60.926 0.095 6.63 1.63 10.29
8/25/2021 5:15:00 PM 16.07 60.926 0.095 6.62 1.94 10.29
8/25/2021 5:30:00 PM 16.08 60.944 0.095 6.61 2.05 10.28
8/25/2021 5:45:00 PM 16.08 60.944 0.095 6.63 1.83 10.28
8/25/2021 6:00:00 PM 16.09 60.962 0.095 6.65 1.63 10.28
8/25/2021 6:15:00 PM 16.09 60.962 0.095 6.62 1.81 10.28
8/25/2021 6:30:00 PM 16.09 60.962 0.095 6.61 1.79 10.28
8/25/2021 6:45:00 PM 16.09 60.962 0.095 6.62 1.77 10.29
8/25/2021 7:00:00 PM 16.09 60.962 0.095 6.64 1.63 10.28
8/25/2021 7:15:00 PM 16.08 60.944 0.095 6.65 1.65 10.29
8/25/2021 7:30:00 PM 16.07 60.926 0.095 6.68 1.72 10.29
8/25/2021 7:45:00 PM 16.05 60.89 0.095 6.68 1.79 10.3
8/25/2021 8:00:00 PM 16.03 60.854 0.096 6.67 1.6 10.29
8/25/2021 8:15:00 PM 16.02 60.836 0.096 6.67 1.62 10.3
8/25/2021 8:30:00 PM 16.01 60.818 0.096 6.69 1.55 10.3
8/25/2021 8:45:00 PM 15.98 60.764 0.096 6.65 1.64 10.3
8/25/2021 9:00:00 PM 15.97 60.746 0.096 6.65 1.6 10.31
8/25/2021 9:15:00 PM 15.95 60.71 0.095 6.65 1.57 10.32
8/25/2021 9:30:00 PM 15.93 60.674 0.095 6.69 1.59 10.32
8/25/2021 9:45:00 PM 15.91 60.638 0.095 6.71 1.57 10.33
8/25/2021 10:00:00 PM 15.89 60.602 0.095 6.69 1.61 10.33
8/25/2021 10:15:00 PM 15.86 60.548 0.095 6.71 2.72 10.34
8/25/2021 10:30:00 PM 15.82 60.476 0.095 6.67 1.93 10.35
8/25/2021 10:45:00 PM 15.79 60.422 0.095 6.68 1.71 10.36
8/25/2021 11:00:00 PM 15.77 60.386 0.095 6.68 1.96 10.37
8/25/2021 11:15:00 PM 15.75 60.35 0.095 6.69 1.93 10.38
8/25/2021 11:30:00 PM 15.73 60.314 0.095 6.69 1.67 10.38
8/25/2021 11:45:00 PM 15.71 60.278 0.095 6.68 1.65 10.39
8/26/2021 12:00:00 AM 15.69 60.242 0.095 6.67 1.93 10.39
8/26/2021 12:15:00 AM 15.67 60.206 0.095 6.67 1.67 10.4
8/26/2021 12:30:00 AM 15.66 60.188 0.095 6.69 1.74 10.4
8/26/2021 12:45:00 AM 15.64 60.152 0.095 6.69 3.01 10.4
8/26/2021 1:00:00 AM 15.62 60.116 0.095 6.68 2.03 10.41
8/26/2021 1:15:00 AM 15.6 60.08 0.095 6.69 1.73 10.41
8/26/2021 1:30:00 AM 15.58 60.044 0.095 6.65 1.71 10.41
8/26/2021 1:45:00 AM 15.57 60.026 0.095 6.68 1.75 10.42
8/26/2021 2:00:00 AM 15.56 60.008 0.095 6.64 1.56 10.43
8/26/2021 2:15:00 AM 15.54 59.972 0.095 6.63 2.37 10.43
8/26/2021 2:30:00 AM 15.52 59.936 0.095 6.64 2.15 10.43
8/26/2021 2:45:00 AM 15.5 59.9 0.095 6.67 1.84 10.44
8/26/2021 3:00:00 AM 15.49 59.882 0.095 6.66 1.9 10.44
8/26/2021 3:15:00 AM 15.47 59.846 0.095 6.65 1.67 10.44
8/26/2021 3:30:00 AM 15.45 59.81 0.095 6.66 1.7 10.45
8/26/2021 3:45:00 AM 15.44 59.792 0.095 6.65 1.7 10.45
8/26/2021 4:00:00 AM 15.43 59.774 0.095 6.65 9 10.45
8/26/2021 4:15:00 AM 15.41 59.738 0.095 6.66 2.71 10.45
8/26/2021 4:30:00 AM 15.4 59.72 0.095 6.65 1.67 10.45
8/26/2021 4:45:00 AM 15.39 59.702 0.095 6.64 1.67 10.45
8/26/2021 5:00:00 AM 15.39 59.702 0.095 6.63 1.56 10.45
8/26/2021 5:15:00 AM 15.39 59.702 0.095 6.65 1.45 10.45
8/26/2021 5:30:00 AM 15.38 59.684 0.095 6.62 1.5 10.45
8/26/2021 5:45:00 AM 15.38 59.684 0.095 6.67 1.48 10.45
8/26/2021 6:00:00 AM 15.37 59.666 0.095 6.63 1.52 10.45
8/26/2021 6:15:00 AM 15.35 59.63 0.095 6.68 1.45 10.46
8/26/2021 6:30:00 AM 15.34 59.612 0.095 6.69 1.57 10.46
8/26/2021 6:45:00 AM 15.32 59.576 0.095 6.66 1.45 10.47
8/26/2021 7:00:00 AM 15.3 59.54 0.095 6.68 1.51 10.48
8/26/2021 7:15:00 AM 15.29 59.522 0.095 6.66 1.5 10.49
8/26/2021 7:30:00 AM 15.28 59.504 0.095 6.67 1.52 10.49
8/26/2021 7:45:00 AM 15.27 59.486 0.095 6.68 1.51 10.49
8/26/2021 8:00:00 AM 15.26 59.468 0.095 6.7 1.62 10.5
8/26/2021 8:15:00 AM 15.26 59.468 0.095 6.68 1.47 10.5
8/26/2021 8:30:00 AM 15.25 59.45 0.095 6.67 1.54 10.5
8/26/2021 8:45:00 AM 15.26 59.468 0.095 6.68 1.71 10.5
8/26/2021 9:00:00 AM 15.28 59.504 0.095 6.65 1.56 10.49
8/26/2021 9:15:00 AM 15.3 59.54 0.095 6.64 1.56 10.49
8/26/2021 9:30:00 AM 15.33 59.594 0.095 6.65 1.61 10.48
8/26/2021 9:45:00 AM 15.36 59.648 0.095 6.63 1.61 10.47
8/26/2021 10:00:00 AM 15.41 59.738 0.095 6.63 1.6 10.46
8/26/2021 10:15:00 AM 15.46 59.828 0.095 6.66 1.53 10.46
8/26/2021 10:30:00 AM 15.52 59.936 0.095 6.68 1.48 10.46
8/26/2021 10:45:00 AM 15.59 60.062 0.095 6.68 1.43 10.45
8/26/2021 11:00:00 AM 15.65 60.17 0.095 6.68 1.49 10.43
8/26/2021 11:15:00 AM 15.72 60.296 0.095 6.69 1.57 10.41
8/26/2021 11:30:00 AM 15.82 60.476 0.095 6.66 1.51 10.38
8/26/2021 11:45:00 AM 15.9 60.62 0.095 6.68 1.46 10.35
8/26/2021 12:00:00 PM 15.96 60.728 0.095 6.67 1.52 10.33
8/26/2021 12:15:00 PM 16.05 60.89 0.095 6.68 1.55 10.32
8/26/2021 12:30:00 PM 16.16 61.088 0.095 6.68 1.58 10.3
8/26/2021 12:45:00 PM 16.27 61.286 0.095 6.69 1.53 10.28
8/26/2021 1:00:00 PM 16.36 61.448 0.095 6.68 1.57 10.25
8/26/2021 1:15:00 PM 16.46 61.628 0.095 6.69 1.49 10.22
8/26/2021 1:30:00 PM 16.54 61.772 0.096 6.67 1.55 10.19
8/26/2021 1:45:00 PM 16.58 61.844 0.096 6.69 1.54 10.18
8/26/2021 2:00:00 PM 16.57 61.826 0.096 6.65 1.61 10.19
8/26/2021 2:15:00 PM 16.54 61.772 0.096 6.68 1.56 10.2
8/26/2021 2:30:00 PM 16.53 61.754 0.096 6.7 1.52 10.2
8/26/2021 2:45:00 PM 16.53 61.754 0.096 6.7 1.56 10.19
8/26/2021 3:00:00 PM 16.54 61.772 0.096 6.69 1.62 10.18
8/26/2021 3:15:00 PM 16.59 61.862 0.096 6.64 1.55 10.18
8/26/2021 3:30:00 PM 16.63 61.934 0.096 6.7 1.54 10.17
8/26/2021 3:45:00 PM 16.64 61.952 0.097 6.67 1.53 10.16
8/26/2021 4:00:00 PM 16.68 62.024 0.097 6.68 1.47 10.15
8/26/2021 4:15:00 PM 16.72 62.096 0.097 6.67 1.6 10.15
8/26/2021 4:30:00 PM 16.74 62.132 0.097 6.67 1.56 10.14
8/26/2021 4:45:00 PM 16.73 62.114 0.097 6.66 1.53 10.14
8/26/2021 5:00:00 PM 16.7 62.06 0.097 6.65 1.59 10.15
8/26/2021 5:15:00 PM 16.68 62.024 0.097 6.67 1.53 10.15
8/26/2021 5:30:00 PM 16.66 61.988 0.097 6.64 1.5 10.15
8/26/2021 5:45:00 PM 16.64 61.952 0.097 6.65 1.52 10.14
8/26/2021 6:00:00 PM 16.62 61.916 0.097 6.65 1.54 10.15
8/26/2021 6:15:00 PM 16.6 61.88 0.097 6.64 1.68 10.15
8/26/2021 6:30:00 PM 16.57 61.826 0.097 6.62 1.57 10.16
8/26/2021 6:45:00 PM 16.55 61.79 0.098 6.61 1.49 10.16
8/26/2021 7:00:00 PM 16.53 61.754 0.098 6.62 1.58 10.17
8/26/2021 7:15:00 PM 16.51 61.718 0.098 6.61 1.61 10.17
8/26/2021 7:30:00 PM 16.49 61.682 0.098 6.64 1.64 10.18
8/26/2021 7:45:00 PM 16.47 61.646 0.098 6.62 1.52 10.19
8/26/2021 8:00:00 PM 16.44 61.592 0.098 6.63 1.57 10.19
8/26/2021 8:15:00 PM 16.41 61.538 0.098 6.65 1.53 10.2
8/26/2021 8:30:00 PM 16.39 61.502 0.098 6.63 1.51 10.21
8/26/2021 8:45:00 PM 16.37 61.466 0.098 6.63 1.62 10.22
8/26/2021 9:00:00 PM 16.37 61.466 0.098 6.65 1.55 10.23
8/26/2021 9:15:00 PM 16.35 61.43 0.098 6.69 1.49 10.24
8/26/2021 9:30:00 PM 16.33 61.394 0.098 6.68 1.62 10.24
8/26/2021 9:45:00 PM 16.31 61.358 0.098 6.68 1.53 10.25
8/26/2021 10:00:00 PM 16.28 61.304 0.098 6.67 1.65 10.25
8/26/2021 10:15:00 PM 16.26 61.268 0.098 6.67 1.6 10.24
8/26/2021 10:30:00 PM 16.23 61.214 0.098 6.69 1.48 10.26
8/26/2021 10:45:00 PM 16.2 61.16 0.098 6.65 1.47 10.27
8/26/2021 11:00:00 PM 16.17 61.106 0.097 6.65 1.49 10.28
8/26/2021 11:15:00 PM 16.14 61.052 0.097 6.64 1.42 10.29
8/26/2021 11:30:00 PM 16.11 60.998 0.097 6.66 1.64 10.3
8/26/2021 11:45:00 PM 16.09 60.962 0.097 6.67 1.51 10.3
8/27/2021 12:00:00 AM 16.07 60.926 0.097 6.71 1.47 10.3
8/27/2021 12:15:00 AM 16.06 60.908 0.097 6.68 1.43 10.31
8/27/2021 12:30:00 AM 16.04 60.872 0.097 6.68 1.54 10.3
8/27/2021 12:45:00 AM 16.02 60.836 0.097 6.7 1.44 10.3
8/27/2021 1:00:00 AM 16 60.8 0.097 6.67 1.48 10.31
8/27/2021 1:15:00 AM 15.97 60.746 0.097 6.69 1.49 10.31
8/27/2021 1:30:00 AM 15.95 60.71 0.097 6.71 1.46 10.32
8/27/2021 1:45:00 AM 15.93 60.674 0.097 6.69 1.49 10.32
8/27/2021 2:00:00 AM 15.9 60.62 0.097 6.67 1.47 10.32
8/27/2021 2:15:00 AM 15.88 60.584 0.097 6.68 1.54 10.33
8/27/2021 2:30:00 AM 15.85 60.53 0.097 6.68 1.55 10.34
8/27/2021 2:45:00 AM 15.83 60.494 0.097 6.68 1.46 10.34
8/27/2021 3:00:00 AM 15.8 60.44 0.097 6.7 1.52 10.35
8/27/2021 3:15:00 AM 15.78 60.404 0.097 6.68 1.65 10.36
8/27/2021 3:30:00 AM 15.75 60.35 0.097 6.7 1.45 10.36
8/27/2021 3:45:00 AM 15.72 60.296 0.097 6.69 1.55 10.37
8/27/2021 4:00:00 AM 15.69 60.242 0.097 6.68 1.98 10.38
8/27/2021 4:15:00 AM 15.67 60.206 0.097 6.71 1.46 10.38
8/27/2021 4:30:00 AM 15.64 60.152 0.097 6.7 1.42 10.39
8/27/2021 4:45:00 AM 15.62 60.116 0.097 6.68 1.38 10.39
8/27/2021 5:00:00 AM 15.6 60.08 0.096 6.69 1.54 10.4
8/27/2021 5:15:00 AM 15.57 60.026 0.096 6.69 1.44 10.41
8/27/2021 5:30:00 AM 15.55 59.99 0.096 6.69 1.51 10.41
8/27/2021 5:45:00 AM 15.54 59.972 0.096 6.68 1.7 10.41
8/27/2021 6:00:00 AM 15.52 59.936 0.096 6.69 1.45 10.42
8/27/2021 6:15:00 AM 15.51 59.918 0.096 6.68 1.39 10.43
8/27/2021 6:30:00 AM 15.5 59.9 0.096 6.68 1.5 10.43
8/27/2021 6:45:00 AM 15.48 59.864 0.096 6.66 1.54 10.43
8/27/2021 7:00:00 AM 15.47 59.846 0.096 6.65 1.5 10.43
8/27/2021 7:15:00 AM 15.46 59.828 0.096 6.67 1.43 10.43
8/27/2021 7:30:00 AM 15.46 59.828 0.097 6.63 1.49 10.43
8/27/2021 7:45:00 AM 15.45 59.81 0.097 6.65 1.52 10.44
8/27/2021 8:00:00 AM 15.45 59.81 0.097 6.66 1.47 10.44
8/27/2021 8:15:00 AM 15.45 59.81 0.097 6.66 1.68 10.44
8/27/2021 8:30:00 AM 15.45 59.81 0.097 6.63 1.49 10.43
8/27/2021 8:45:00 AM 15.46 59.828 0.097 6.64 1.59 10.44
8/27/2021 9:00:00 AM 15.47 59.846 0.097 6.65 1.6 10.44
8/27/2021 9:15:00 AM 15.49 59.882 0.097 6.62 1.63 10.44
8/27/2021 9:30:00 AM 15.51 59.918 0.097 6.62 1.49 10.43
8/27/2021 9:45:00 AM 15.53 59.954 0.097 6.62 1.66 10.43
8/27/2021 10:00:00 AM 15.56 60.008 0.097 6.63 1.63 10.43
8/27/2021 10:15:00 AM 15.59 60.062 0.097 6.62 1.45 10.42
8/27/2021 10:30:00 AM 15.62 60.116 0.097 6.65 1.51 10.42
8/27/2021 10:45:00 AM 15.66 60.188 0.097 6.63 1.65 10.41
8/27/2021 11:00:00 AM 15.69 60.242 0.097 6.64 1.55 10.4
8/27/2021 11:15:00 AM 15.72 60.296 0.097 6.64 1.5 10.39
8/27/2021 11:30:00 AM 15.76 60.368 0.097 6.63 1.5 10.38
8/27/2021 11:45:00 AM 15.8 60.44 0.097 6.64 1.5 10.37
8/27/2021 12:00:00 PM 15.85 60.53 0.097 6.65 1.47 10.36
8/27/2021 12:15:00 PM 15.91 60.638 0.097 6.66 1.53 10.35
8/27/2021 12:30:00 PM 15.98 60.764 0.097 6.7 1.48 10.33
8/27/2021 12:45:00 PM 16.04 60.872 0.097 6.68 1.45 10.31
8/27/2021 1:00:00 PM 16.12 61.016 0.097 6.67 1.46 10.3
8/27/2021 1:15:00 PM 16.21 61.178 0.097 6.68 1.44 10.28
8/27/2021 1:30:00 PM 16.32 61.376 0.097 6.69 1.62 10.25
8/27/2021 1:45:00 PM 16.41 61.538 0.097 6.68 1.51 10.23
8/27/2021 2:00:00 PM 16.49 61.682 0.097 6.68 4079.75 10.21
8/27/2021 2:15:00 PM 16.56 61.808 0.098 6.72 1.89 10.18
8/27/2021 2:30:00 PM 16.65 61.97 0.097 6.7 1.62 10.16
8/27/2021 2:45:00 PM 16.71 62.078 0.097 6.67 1.49 10.15
8/27/2021 3:00:00 PM 16.76 62.168 0.098 6.68 1.57 10.13
8/27/2021 3:15:00 PM 16.83 62.294 0.098 6.68 1.54 10.12
8/27/2021 3:30:00 PM 16.88 62.384 0.098 6.67 1.56 10.11
8/27/2021 3:45:00 PM 16.9 62.42 0.098 6.65 1.5 10.1
8/27/2021 4:00:00 PM 16.93 62.474 0.098 6.67 1.56 10.09
8/27/2021 4:15:00 PM 16.92 62.456 0.098 6.65 1.61 10.09
8/27/2021 4:30:00 PM 16.9 62.42 0.098 6.63 1.58 10.09
8/27/2021 4:45:00 PM 16.9 62.42 0.098 6.63 1.55 10.1
8/27/2021 5:00:00 PM 16.89 62.402 0.099 6.64 2.03 10.1
8/27/2021 5:15:00 PM 16.85 62.33 0.099 6.67 1.86 10.11
8/27/2021 5:30:00 PM 16.81 62.258 0.099 6.67 1.61 10.12
8/27/2021 5:45:00 PM 16.77 62.186 0.099 6.63 1.53 10.12
8/27/2021 6:00:00 PM 16.74 62.132 0.099 6.62 1.75 10.12
8/27/2021 6:15:00 PM 16.7 62.06 0.099 6.64 1.44 10.13
8/27/2021 6:30:00 PM 16.66 61.988 0.099 6.61 1.55 10.13
8/27/2021 6:45:00 PM 16.63 61.934 0.099 6.62 1.44 10.15
8/27/2021 7:00:00 PM 16.61 61.898 0.099 6.63 1.44 10.15
8/27/2021 7:15:00 PM 16.58 61.844 0.099 6.63 1.47 10.14
8/27/2021 7:30:00 PM 16.57 61.826 0.1 6.62 1.54 10.15
8/27/2021 7:45:00 PM 16.56 61.808 0.1 6.67 1.53 10.16
8/27/2021 8:00:00 PM 16.55 61.79 0.1 6.67 1.53 10.16
8/27/2021 8:15:00 PM 16.52 61.736 0.1 6.65 1.56 10.18
8/27/2021 8:30:00 PM 16.49 61.682 0.1 6.65 1.49 10.18
8/27/2021 8:45:00 PM 16.46 61.628 0.1 6.66 1.66 10.2
8/27/2021 9:00:00 PM 16.43 61.574 0.1 6.64 1.46 10.21
8/27/2021 9:15:00 PM 16.39 61.502 0.1 6.64 1.49 10.22
8/27/2021 9:30:00 PM 16.35 61.43 0.1 6.64 1.46 10.23
8/27/2021 9:45:00 PM 16.32 61.376 0.1 6.65 1.38 10.24
8/27/2021 10:00:00 PM 16.29 61.322 0.1 6.63 1.42 10.25
8/27/2021 10:15:00 PM 16.27 61.286 0.1 6.66 1.51 10.25
8/27/2021 10:30:00 PM 16.25 61.25 0.1 6.67 1.44 10.26
8/27/2021 10:45:00 PM 16.22 61.196 0.1 6.65 1.44 10.26
8/27/2021 11:00:00 PM 16.2 61.16 0.099 6.64 1.52 10.27
8/27/2021 11:15:00 PM 16.18 61.124 0.099 6.64 1.44 10.28
8/27/2021 11:30:00 PM 16.16 61.088 0.099 6.67 1.38 10.28
8/27/2021 11:45:00 PM 16.14 61.052 0.099 6.67 1.47 10.29
8/28/2021 12:00:00 AM 16.12 61.016 0.099 6.67 1.36 10.29
8/28/2021 12:15:00 AM 16.1 60.98 0.099 6.64 1.37 10.29
8/28/2021 12:30:00 AM 16.08 60.944 0.099 6.67 1.45 10.3
8/28/2021 12:45:00 AM 16.05 60.89 0.099 6.66 1.48 10.3
8/28/2021 1:00:00 AM 16.03 60.854 0.099 6.66 1.43 10.3
8/28/2021 1:15:00 AM 16 60.8 0.099 6.65 1.35 10.31
8/28/2021 1:30:00 AM 15.97 60.746 0.099 6.66 1.55 10.31
8/28/2021 1:45:00 AM 15.95 60.71 0.099 6.65 1.45 10.32
8/28/2021 2:00:00 AM 15.93 60.674 0.099 6.65 1.4 10.32
8/28/2021 2:15:00 AM 15.91 60.638 0.099 6.67 1.4 10.32
8/28/2021 2:30:00 AM 15.89 60.602 0.099 6.63 1.36 10.33
8/28/2021 2:45:00 AM 15.87 60.566 0.099 6.63 1.38 10.33
8/28/2021 3:00:00 AM 15.86 60.548 0.099 6.63 1.52 10.34
8/28/2021 3:15:00 AM 15.84 60.512 0.099 6.64 1.37 10.34
8/28/2021 3:30:00 AM 15.83 60.494 0.099 6.63 1.45 10.34
8/28/2021 3:45:00 AM 15.82 60.476 0.099 6.63 1.47 10.34
8/28/2021 4:00:00 AM 15.82 60.476 0.099 6.61 1.51 10.34
8/28/2021 4:15:00 AM 15.81 60.458 0.099 6.58 1.43 10.34
8/28/2021 4:30:00 AM 15.79 60.422 0.099 6.59 1.42 10.35
8/28/2021 4:45:00 AM 15.78 60.404 0.099 6.6 1.37 10.35
8/28/2021 5:00:00 AM 15.77 60.386 0.099 6.64 1.48 10.36
8/28/2021 5:15:00 AM 15.75 60.35 0.099 6.67 1.44 10.37
8/28/2021 5:30:00 AM 15.74 60.332 0.099 6.71 1.41 10.37
8/28/2021 5:45:00 AM 15.72 60.296 0.099 6.68 1.44 10.38
8/28/2021 6:00:00 AM 15.7 60.26 0.099 6.7 1.33 10.39
8/28/2021 6:15:00 AM 15.68 60.224 0.099 6.67 1.41 10.39
8/28/2021 6:30:00 AM 15.66 60.188 0.098 6.69 1.52 10.4
8/28/2021 6:45:00 AM 15.64 60.152 0.098 6.69 1.47 10.41
8/28/2021 7:00:00 AM 15.62 60.116 0.098 6.65 1.53 10.41
8/28/2021 7:15:00 AM 15.61 60.098 0.098 6.69 1.69 10.42
8/28/2021 7:30:00 AM 15.59 60.062 0.098 6.69 1.53 10.42
8/28/2021 7:45:00 AM 15.57 60.026 0.099 6.66 1.49 10.43
8/28/2021 8:00:00 AM 15.56 60.008 0.099 6.69 1.38 10.43
8/28/2021 8:15:00 AM 15.56 60.008 0.099 6.65 1.58 10.43
8/28/2021 8:30:00 AM 15.55 59.99 0.099 6.64 1.39 10.44
8/28/2021 8:45:00 AM 15.55 59.99 0.099 6.64 1.39 10.44
8/28/2021 9:00:00 AM 15.56 60.008 0.099 6.65 1.51 10.43
8/28/2021 9:15:00 AM 15.58 60.044 0.099 6.63 1.37 10.43
8/28/2021 9:30:00 AM 15.6 60.08 0.099 6.62 1.44 10.43
8/28/2021 9:45:00 AM 15.63 60.134 0.099 6.66 1.39 10.43
8/28/2021 10:00:00 AM 15.66 60.188 0.099 6.65 1.35 10.42
8/28/2021 10:15:00 AM 15.71 60.278 0.099 6.7 1.46 10.41
8/28/2021 10:30:00 AM 15.78 60.404 0.099 6.68 1.37 10.4
8/28/2021 10:45:00 AM 15.87 60.566 0.099 6.71 1.43 10.38
8/28/2021 11:00:00 AM 15.95 60.71 0.099 6.71 1.41 10.35
8/28/2021 11:15:00 AM 16.02 60.836 0.099 6.69 1.55 10.33
8/28/2021 11:30:00 AM 16.12 61.016 0.099 6.7 1.37 10.32
8/28/2021 11:45:00 AM 16.2 61.16 0.099 6.71 1.37 10.3
8/28/2021 12:00:00 PM 16.26 61.268 0.099 6.67 1.49 10.29
8/28/2021 12:15:00 PM 16.33 61.394 0.099 6.66 1.41 10.26
8/28/2021 12:30:00 PM 16.39 61.502 0.099 6.69 1.48 10.24
8/28/2021 12:45:00 PM 16.44 61.592 0.099 6.65 1.4 10.22
8/28/2021 1:00:00 PM 16.49 61.682 0.099 6.66 1.59 10.2
8/28/2021 1:15:00 PM 16.52 61.736 0.099 6.67 1.46 10.19
8/28/2021 1:30:00 PM 16.56 61.808 0.099 6.64 1.6 10.18
8/28/2021 1:45:00 PM 16.78 62.204 0.095 6.68 4.53 10.13
8/28/2021 2:00:00 PM 16.78 62.204 0.094 6.7 4.78 10.13
8/28/2021 2:15:00 PM 16.73 62.114 0.094 6.69 3.69 10.12
8/28/2021 2:30:00 PM 16.71 62.078 0.098 6.73 4.01 10.13
8/28/2021 2:45:00 PM 16.64 61.952 0.098 6.75 3.27 10.15
8/28/2021 3:00:00 PM 16.57 61.826 0.097 6.72 2.76 10.18
8/28/2021 3:15:00 PM 16.5 61.7 0.096 6.74 2.75 10.19
8/28/2021 3:30:00 PM 16.44 61.592 0.097 6.74 2.81 10.21
8/28/2021 3:45:00 PM 16.38 61.484 0.099 6.77 3.34 10.22
8/28/2021 4:00:00 PM 16.35 61.43 0.102 6.75 2.99 10.22
8/28/2021 4:15:00 PM 16.32 61.376 0.103 6.74 2.62 10.23
8/28/2021 4:30:00 PM 16.3 61.34 0.101 6.76 2.18 10.24
8/28/2021 4:45:00 PM 16.28 61.304 0.101 6.75 2.02 10.24
8/28/2021 5:00:00 PM 16.29 61.322 0.1 6.75 1.95 10.25
8/28/2021 5:15:00 PM 16.29 61.322 0.1 6.75 1.82 10.24
8/28/2021 5:30:00 PM 16.3 61.34 0.1 6.73 1.79 10.24
8/28/2021 5:45:00 PM 16.31 61.358 0.1 6.71 1.85 10.25
8/28/2021 6:00:00 PM 16.31 61.358 0.1 6.7 1.74 10.25
8/28/2021 6:15:00 PM 16.31 61.358 0.1 6.69 1.75 10.25
8/28/2021 6:30:00 PM 16.3 61.34 0.1 6.71 1.68 10.25
8/28/2021 6:45:00 PM 16.28 61.304 0.1 6.69 1.65 10.26
8/28/2021 7:00:00 PM 16.26 61.268 0.1 6.67 1.72 10.26
8/28/2021 7:15:00 PM 16.25 61.25 0.1 6.69 1.68 10.26
8/28/2021 7:30:00 PM 16.23 61.214 0.1 6.65 1.62 10.26
8/28/2021 7:45:00 PM 16.22 61.196 0.1 6.64 1.69 10.27
8/28/2021 8:00:00 PM 16.19 61.142 0.1 6.68 1.5 10.27
8/28/2021 8:15:00 PM 16.18 61.124 0.1 6.7 1.56 10.28
8/28/2021 8:30:00 PM 16.16 61.088 0.1 6.69 1.55 10.28
8/28/2021 8:45:00 PM 16.13 61.034 0.1 6.65 1.58 10.29
8/28/2021 9:00:00 PM 16.11 60.998 0.1 6.67 1.56 10.29
8/28/2021 9:15:00 PM 16.09 60.962 0.1 6.66 1.58 10.3
8/28/2021 9:30:00 PM 16.07 60.926 0.1 6.69 1.5 10.31
8/28/2021 9:45:00 PM 16.05 60.89 0.1 6.7 1.62 10.32
8/28/2021 10:00:00 PM 16.02 60.836 0.1 6.75 1.55 10.33
8/28/2021 10:15:00 PM 15.99 60.782 0.099 6.73 1.6 10.33
8/28/2021 10:30:00 PM 15.96 60.728 0.1 6.72 1.53 10.33
8/28/2021 10:45:00 PM 15.94 60.692 0.1 6.73 1.55 10.34
8/28/2021 11:00:00 PM 15.92 60.656 0.1 6.69 1.48 10.34
8/28/2021 11:15:00 PM 15.89 60.602 0.1 6.7 1.59 10.35
8/28/2021 11:30:00 PM 15.87 60.566 0.1 6.69 1.53 10.36
8/28/2021 11:45:00 PM 15.86 60.548 0.1 6.67 1.47 10.36
8/29/2021 12:00:00 AM 15.84 60.512 0.1 6.69 1.52 10.36
8/29/2021 12:15:00 AM 15.83 60.494 0.101 6.69 1.54 10.37
8/29/2021 12:30:00 AM 15.82 60.476 0.101 6.66 1.63 10.37
8/29/2021 12:45:00 AM 15.81 60.458 0.101 6.65 1.46 10.37
8/29/2021 1:00:00 AM 15.81 60.458 0.101 6.66 1.45 10.37
8/29/2021 1:15:00 AM 15.8 60.44 0.102 6.67 1.6 10.37
8/29/2021 1:30:00 AM 15.8 60.44 0.102 6.66 1.4 10.37
8/29/2021 1:45:00 AM 15.8 60.44 0.102 6.62 1.44 10.36
8/29/2021 2:00:00 AM 15.79 60.422 0.102 6.59 1.39 10.36
8/29/2021 2:15:00 AM 15.8 60.44 0.102 6.62 1.56 10.37
8/29/2021 2:30:00 AM 15.79 60.422 0.102 6.63 1.39 10.36
8/29/2021 2:45:00 AM 15.79 60.422 0.102 6.62 1.45 10.36
8/29/2021 3:00:00 AM 15.78 60.404 0.102 6.63 1.36 10.36
8/29/2021 3:15:00 AM 15.78 60.404 0.102 6.62 1.42 10.36
8/29/2021 3:30:00 AM 15.78 60.404 0.102 6.63 1.49 10.36
8/29/2021 3:45:00 AM 15.78 60.404 0.102 6.61 1.51 10.36
8/29/2021 4:00:00 AM 15.78 60.404 0.102 6.6 1.4 10.36
8/29/2021 4:15:00 AM 15.78 60.404 0.102 6.58 1.42 10.36
8/29/2021 4:30:00 AM 15.78 60.404 0.102 6.61 1.45 10.36
8/29/2021 4:45:00 AM 15.78 60.404 0.102 6.62 1.37 10.36
8/29/2021 5:00:00 AM 15.78 60.404 0.102 6.6 1.35 10.35
8/29/2021 5:15:00 AM 15.79 60.422 0.101 6.63 1.37 10.35
8/29/2021 5:30:00 AM 15.8 60.44 0.101 6.65 1.46 10.36
8/29/2021 5:45:00 AM 15.81 60.458 0.101 6.68 1.59 10.36
8/29/2021 6:00:00 AM 15.81 60.458 0.101 6.67 1.37 10.36
8/29/2021 6:15:00 AM 15.81 60.458 0.101 6.69 1.38 10.36
8/29/2021 6:30:00 AM 15.82 60.476 0.101 6.71 1.57 10.36
8/29/2021 6:45:00 AM 15.83 60.494 0.101 6.7 1.42 10.36
8/29/2021 7:00:00 AM 15.83 60.494 0.101 6.69 1.46 10.36
8/29/2021 7:15:00 AM 15.83 60.494 0.101 6.7 1.42 10.36
8/29/2021 7:30:00 AM 15.82 60.476 0.101 6.68 1.43 10.35
8/29/2021 7:45:00 AM 15.83 60.494 0.1 6.69 1.42 10.35
8/29/2021 8:00:00 AM 15.82 60.476 0.1 6.7 1.47 10.36
8/29/2021 8:15:00 AM 15.82 60.476 0.1 6.69 1.52 10.37
8/29/2021 8:30:00 AM 15.83 60.494 0.1 6.67 1.47 10.37
8/29/2021 8:45:00 AM 15.83 60.494 0.1 6.7 1.44 10.37
8/29/2021 9:00:00 AM 15.84 60.512 0.1 6.68 1.49 10.36
8/29/2021 9:15:00 AM 15.85 60.53 0.1 6.71 1.47 10.36
8/29/2021 9:30:00 AM 15.87 60.566 0.1 6.7 1.57 10.35
8/29/2021 9:45:00 AM 15.89 60.602 0.1 6.71 1.45 10.35
8/29/2021 10:00:00 AM 15.92 60.656 0.1 6.71 1.55 10.34
8/29/2021 10:15:00 AM 15.96 60.728 0.1 6.73 1.47 10.33
8/29/2021 10:30:00 AM 16 60.8 0.1 6.72 1.49 10.32
8/29/2021 10:45:00 AM 16.06 60.908 0.099 6.69 1.72 10.31
8/29/2021 11:00:00 AM 16.07 60.926 0.098 6.69 1.9 10.3
8/29/2021 11:15:00 AM 16.11 60.998 0.098 6.66 1.88 10.29
8/29/2021 11:30:00 AM 16.15 61.07 0.098 6.66 1.83 10.29
8/29/2021 11:45:00 AM 16.18 61.124 0.099 6.7 1.87 10.28
8/29/2021 12:00:00 PM 16.21 61.178 0.099 6.69 1.91 10.28
8/29/2021 12:15:00 PM 16.24 61.232 0.099 6.69 2.12 10.27
8/29/2021 12:30:00 PM 16.31 61.358 0.1 6.72 2.99 10.24
8/29/2021 12:45:00 PM 16.41 61.538 0.103 6.75 2.8 10.22
8/29/2021 1:00:00 PM 16.5 61.7 0.104 6.76 2.38 10.19
8/29/2021 1:15:00 PM 16.54 61.772 0.104 6.76 2.13 10.17
8/29/2021 1:30:00 PM 16.6 61.88 0.105 6.78 2.35 10.16
8/29/2021 1:45:00 PM 16.63 61.934 0.105 6.78 2.73 10.16
8/29/2021 2:00:00 PM 16.6 61.88 0.106 6.85 2.48 10.15
8/29/2021 2:15:00 PM 16.57 61.826 0.106 6.86 2.61 10.16
8/29/2021 2:30:00 PM 16.55 61.79 0.107 6.87 2.76 10.17
8/29/2021 2:45:00 PM 16.52 61.736 0.106 6.89 3.82 10.17
8/29/2021 3:00:00 PM 16.55 61.79 0.107 6.91 4.38 10.16
8/29/2021 3:15:00 PM 16.6 61.88 0.109 6.95 4 10.17
8/29/2021 3:30:00 PM 16.65 61.97 0.112 6.98 3.79 10.16
8/29/2021 3:45:00 PM 16.69 62.042 0.112 7.02 3.36 10.15
8/29/2021 4:00:00 PM 16.78 62.204 0.111 7.01 2.97 10.11
8/29/2021 4:15:00 PM 16.87 62.366 0.111 6.97 2.62 10.08
8/29/2021 4:30:00 PM 16.95 62.51 0.11 6.99 2.49 10.06
8/29/2021 4:45:00 PM 16.99 62.582 0.11 6.95 2.42 10.06
8/29/2021 5:00:00 PM 17.01 62.618 0.11 6.96 2.44 10.05
8/29/2021 5:15:00 PM 17.04 62.672 0.109 7.01 2.57 10.06
8/29/2021 5:30:00 PM 17.04 62.672 0.106 7.02 3.34 10.05
8/29/2021 5:45:00 PM 16.95 62.51 0.106 7.02 4.28 10.07
8/29/2021 6:00:00 PM 16.87 62.366 0.107 7.02 5.27 10.08
8/29/2021 6:15:00 PM 16.79 62.222 0.111 7.02 5.7 10.1
8/29/2021 6:30:00 PM 16.7 62.06 0.111 7.03 10.77 10.13
8/29/2021 6:45:00 PM 16.71 62.078 0.117 7.1 15.15 10.14
8/29/2021 7:00:00 PM 16.72 62.096 0.12 7.13 11.41 10.12
8/29/2021 7:15:00 PM 16.67 62.006 0.119 7.12 9.14 10.15
8/29/2021 7:30:00 PM 16.6 61.88 0.12 7.11 7.8 10.17
8/29/2021 7:45:00 PM 16.56 61.808 0.12 7.15 6.96 10.17
8/29/2021 8:00:00 PM 16.54 61.772 0.12 7.15 6.7 10.16
8/29/2021 8:15:00 PM 16.52 61.736 0.119 7.16 6.14 10.17
8/29/2021 8:30:00 PM 16.49 61.682 0.118 7.12 5.62 10.18
8/29/2021 8:45:00 PM 16.46 61.628 0.118 7.12 5.35 10.18
8/29/2021 9:00:00 PM 16.44 61.592 0.119 7.12 4.82 10.18
8/29/2021 9:15:00 PM 16.41 61.538 0.12 7.13 4.79 10.2
8/29/2021 9:30:00 PM 16.37 61.466 0.121 7.1 4.26 10.22
8/29/2021 9:45:00 PM 16.33 61.394 0.122 7.13 3.94 10.23
8/29/2021 10:00:00 PM 16.3 61.34 0.123 7.12 3.81 10.25
8/29/2021 10:15:00 PM 16.26 61.268 0.123 7.1 3.7 10.26
8/29/2021 10:30:00 PM 16.22 61.196 0.124 7.09 3.75 10.26
8/29/2021 10:45:00 PM 16.19 61.142 0.124 7.09 3.48 10.27
8/29/2021 11:00:00 PM 16.15 61.07 0.124 7.09 3.3 10.28
8/29/2021 11:15:00 PM 16.12 61.016 0.123 7.08 3.4 10.29
8/29/2021 11:30:00 PM 16.09 60.962 0.123 7.09 3.35 10.29
8/29/2021 11:45:00 PM 16.06 60.908 0.122 7.07 3.43 10.3
8/30/2021 12:00:00 AM 16.04 60.872 0.122 7.05 3.53 10.29
8/30/2021 12:15:00 AM 16.01 60.818 0.122 7.05 3.4 10.3
8/30/2021 12:30:00 AM 15.99 60.782 0.121 7.05 3.45 10.3
8/30/2021 12:45:00 AM 15.97 60.746 0.121 7.05 3.4 10.31
8/30/2021 1:00:00 AM 15.95 60.71 0.121 7.04 3.18 10.31
8/30/2021 1:15:00 AM 15.94 60.692 0.121 7.04 3.06 10.31
8/30/2021 1:30:00 AM 15.92 60.656 0.121 7.01 3.06 10.32
8/30/2021 1:45:00 AM 15.91 60.638 0.121 7.02 2.99 10.32
8/30/2021 2:00:00 AM 15.89 60.602 0.121 7.01 2.92 10.31
8/30/2021 2:15:00 AM 15.88 60.584 0.121 7.02 2.97 10.32
8/30/2021 2:30:00 AM 15.87 60.566 0.121 7 2.9 10.32
8/30/2021 2:45:00 AM 15.86 60.548 0.121 7 2.8 10.33
8/30/2021 3:00:00 AM 15.87 60.566 0.121 6.97 2.77 10.32
8/30/2021 3:15:00 AM 15.89 60.602 0.12 6.96 2.99 10.31
8/30/2021 3:30:00 AM 15.93 60.674 0.12 6.98 2.86 10.29
8/30/2021 3:45:00 AM 15.95 60.71 0.12 6.97 2.84 10.3
8/30/2021 4:00:00 AM 15.96 60.728 0.12 6.98 2.86 10.29
8/30/2021 4:15:00 AM 15.96 60.728 0.12 6.97 2.75 10.28
8/30/2021 4:30:00 AM 15.97 60.746 0.12 6.96 2.74 10.28
8/30/2021 4:45:00 AM 15.97 60.746 0.121 6.99 2.54 10.27
8/30/2021 5:00:00 AM 15.97 60.746 0.121 7 2.65 10.28
8/30/2021 5:15:00 AM 15.96 60.728 0.121 6.99 2.73 10.27
8/30/2021 5:30:00 AM 15.95 60.71 0.121 7 2.72 10.28
8/30/2021 5:45:00 AM 15.93 60.674 0.121 6.99 2.55 10.29
8/30/2021 6:00:00 AM 15.93 60.674 0.122 6.97 2.6 10.28
8/30/2021 6:15:00 AM 15.92 60.656 0.123 6.98 2.52 10.28
8/30/2021 6:30:00 AM 15.92 60.656 0.123 6.97 2.57 10.29
8/30/2021 6:45:00 AM 15.92 60.656 0.123 6.99 2.49 10.28
8/30/2021 7:00:00 AM 15.93 60.674 0.123 6.97 2.6 10.28
8/30/2021 7:15:00 AM 15.93 60.674 0.123 6.98 2.54 10.29
8/30/2021 7:30:00 AM 15.94 60.692 0.123 6.99 2.59 10.27
8/30/2021 7:45:00 AM 15.96 60.728 0.123 6.99 2.53 10.28
8/30/2021 8:00:00 AM 15.98 60.764 0.123 7 2.49 10.28
8/30/2021 8:15:00 AM 16 60.8 0.123 7.02 2.37 10.27
8/30/2021 8:30:00 AM 16.02 60.836 0.123 7 2.44 10.26
8/30/2021 8:45:00 AM 16.04 60.872 0.123 7.03 2.52 10.27
8/30/2021 9:00:00 AM 16.07 60.926 0.122 7.04 2.4 10.26
8/30/2021 9:15:00 AM 16.11 60.998 0.122 7.02 2.52 10.26
8/30/2021 9:30:00 AM 16.15 61.07 0.122 7.03 2.52 10.25
8/30/2021 9:45:00 AM 16.2 61.16 0.122 7.03 2.21 10.24
8/30/2021 10:00:00 AM 16.26 61.268 0.122 7.03 2.3 10.23
8/30/2021 10:15:00 AM 16.3 61.34 0.122 7.03 2.25 10.2
8/30/2021 10:30:00 AM 16.34 61.412 0.122 7.03 2.21 10.2
8/30/2021 10:45:00 AM 16.38 61.484 0.122 7.05 2.51 10.19
8/30/2021 11:00:00 AM 16.39 61.502 0.122 7.01 2.35 10.19
8/30/2021 11:15:00 AM 16.41 61.538 0.121 7.01 2.2 10.18
8/30/2021 11:30:00 AM 16.41 61.538 0.121 7.01 2.39 10.18
8/30/2021 11:45:00 AM 16.42 61.556 0.121 7.02 2.18 10.18
8/30/2021 12:00:00 PM 16.44 61.592 0.121 7.03 2.2 10.18
8/30/2021 12:15:00 PM 16.47 61.646 0.121 7.03 2.17 10.17
8/30/2021 12:30:00 PM 16.48 61.664 0.121 7.01 2.19 10.16
8/30/2021 12:45:00 PM 16.5 61.7 0.121 7.02 2.18 10.16
8/30/2021 1:00:00 PM 16.52 61.736 0.12 7.02 2.19 10.15
8/30/2021 1:15:00 PM 16.54 61.772 0.12 7 2.31 10.15
8/30/2021 1:30:00 PM 16.59 61.862 0.12 7.03 2.01 10.13
8/30/2021 1:45:00 PM 16.63 61.934 0.12 7.03 2.19 10.12
8/30/2021 2:00:00 PM 16.67 62.006 0.12 7.03 2.21 10.11
8/30/2021 2:15:00 PM 16.72 62.096 0.12 7.02 2.19 10.1
8/30/2021 2:30:00 PM 16.77 62.186 0.12 7.02 2.28 10.09
8/30/2021 2:45:00 PM 16.77 62.186 0.12 7.01 2.02 10.09
8/30/2021 3:00:00 PM 16.81 62.258 0.12 6.99 2.06 10.08
8/30/2021 3:15:00 PM 16.83 62.294 0.12 6.99 2.23 10.07
8/30/2021 3:30:00 PM 16.84 62.312 0.119 6.99 2.26 10.06
8/30/2021 3:45:00 PM 16.87 62.366 0.119 6.99 2.4 10.05
8/30/2021 4:00:00 PM 16.86 62.348 0.119 7 2.12 10.05
8/30/2021 4:15:00 PM 16.83 62.294 0.119 6.98 2.12 10.06
8/30/2021 4:30:00 PM 16.82 62.276 0.119 6.97 2.18 10.06
8/30/2021 4:45:00 PM 16.82 62.276 0.119 6.96 2.03 10.06
8/30/2021 5:00:00 PM 16.85 62.33 0.119 6.98 2.1 10.05
8/30/2021 5:15:00 PM 16.87 62.366 0.119 6.95 2.05 10.05
8/30/2021 5:30:00 PM 16.87 62.366 0.118 6.94 2.16 10.04
8/30/2021 5:45:00 PM 16.86 62.348 0.118 6.93 2.08 10.05
8/30/2021 6:00:00 PM 16.85 62.33 0.117 6.96 2.4 10.05
8/30/2021 6:15:00 PM 16.83 62.294 0.117 6.92 2.15 10.05
8/30/2021 6:30:00 PM 16.81 62.258 0.117 6.93 1.97 10.06
8/30/2021 6:45:00 PM 16.78 62.204 0.117 6.92 2 10.06
8/30/2021 7:00:00 PM 16.75 62.15 0.117 6.91 2.03 10.06
8/30/2021 7:15:00 PM 16.72 62.096 0.117 6.92 2.06 10.07
8/30/2021 7:30:00 PM 16.7 62.06 0.117 6.94 2.17 10.07
8/30/2021 7:45:00 PM 16.67 62.006 0.117 6.93 2.12 10.07
8/30/2021 8:00:00 PM 16.64 61.952 0.117 6.94 2.12 10.08
8/30/2021 8:15:00 PM 16.61 61.898 0.117 6.94 2.03 10.09
8/30/2021 8:30:00 PM 16.58 61.844 0.116 6.94 2.05 10.1
8/30/2021 8:45:00 PM 16.55 61.79 0.116 6.95 1.94 10.11
8/30/2021 9:00:00 PM 16.53 61.754 0.116 6.93 2.03 10.12
8/30/2021 9:15:00 PM 16.5 61.7 0.116 6.93 1.94 10.12
8/30/2021 9:30:00 PM 16.47 61.646 0.116 6.93 2.01 10.13
8/30/2021 9:45:00 PM 16.45 61.61 0.116 6.94 1.93 10.14
8/30/2021 10:00:00 PM 16.43 61.574 0.116 6.92 1.98 10.14
8/30/2021 10:15:00 PM 16.41 61.538 0.115 6.92 2.07 10.15
8/30/2021 10:30:00 PM 16.38 61.484 0.115 6.92 1.9 10.16
8/30/2021 10:45:00 PM 16.36 61.448 0.115 6.93 1.95 10.16
8/30/2021 11:00:00 PM 16.33 61.394 0.115 6.92 1.91 10.17
8/30/2021 11:15:00 PM 16.31 61.358 0.115 6.94 1.92 10.17
8/30/2021 11:30:00 PM 16.27 61.286 0.115 6.91 1.91 10.18
8/30/2021 11:45:00 PM 16.25 61.25 0.115 6.92 1.95 10.19
8/31/2021 12:00:00 AM 16.22 61.196 0.115 6.93 1.82 10.2
8/31/2021 12:15:00 AM 16.2 61.16 0.115 6.93 1.93 10.2
8/31/2021 12:30:00 AM 16.18 61.124 0.115 6.94 1.84 10.2
8/31/2021 12:45:00 AM 16.16 61.088 0.114 6.95 1.77 10.21
8/31/2021 1:00:00 AM 16.14 61.052 0.114 6.95 1.75 10.21
8/31/2021 1:15:00 AM 16.12 61.016 0.114 6.93 1.82 10.21
8/31/2021 1:30:00 AM 16.09 60.962 0.114 6.95 1.85 10.22
8/31/2021 1:45:00 AM 16.07 60.926 0.114 6.92 1.87 10.22
8/31/2021 2:00:00 AM 16.04 60.872 0.115 6.94 1.85 10.22
8/31/2021 2:15:00 AM 16.01 60.818 0.115 6.94 1.9 10.23
8/31/2021 2:30:00 AM 15.98 60.764 0.114 6.92 1.78 10.24
8/31/2021 2:45:00 AM 15.95 60.71 0.114 6.94 1.85 10.24
8/31/2021 3:00:00 AM 15.92 60.656 0.114 6.94 1.89 10.25
8/31/2021 3:15:00 AM 15.89 60.602 0.114 6.93 1.73 10.26
8/31/2021 3:30:00 AM 15.85 60.53 0.114 6.91 1.84 10.27
8/31/2021 3:45:00 AM 15.82 60.476 0.114 6.91 1.84 10.28
8/31/2021 4:00:00 AM 15.79 60.422 0.114 6.9 1.88 10.28
8/31/2021 4:15:00 AM 15.76 60.368 0.114 6.9 1.8 10.29
8/31/2021 4:30:00 AM 15.73 60.314 0.114 6.91 1.72 10.29
8/31/2021 4:45:00 AM 15.71 60.278 0.114 6.91 1.77 10.3
8/31/2021 5:00:00 AM 15.69 60.242 0.114 6.9 1.78 10.31
8/31/2021 5:15:00 AM 15.66 60.188 0.113 6.89 1.88 10.31
8/31/2021 5:30:00 AM 15.64 60.152 0.113 6.9 1.72 10.32
8/31/2021 5:45:00 AM 15.61 60.098 0.113 6.88 1.87 10.32
8/31/2021 6:00:00 AM 15.6 60.08 0.113 6.88 1.75 10.32
8/31/2021 6:15:00 AM 15.58 60.044 0.113 6.88 1.96 10.33
8/31/2021 6:30:00 AM 15.57 60.026 0.113 6.89 1.85 10.33
8/31/2021 6:45:00 AM 15.55 59.99 0.113 6.9 1.86 10.34
8/31/2021 7:00:00 AM 15.53 59.954 0.113 6.88 1.84 10.34
8/31/2021 7:15:00 AM 15.51 59.918 0.113 6.9 1.88 10.35
8/31/2021 7:30:00 AM 15.5 59.9 0.113 6.88 2 10.35
8/31/2021 7:45:00 AM 15.49 59.882 0.113 6.9 1.8 10.36
8/31/2021 8:00:00 AM 15.48 59.864 0.113 6.88 1.8 10.36
8/31/2021 8:15:00 AM 15.48 59.864 0.113 6.87 1.81 10.36
8/31/2021 8:30:00 AM 15.49 59.882 0.113 6.88 1.77 10.36
8/31/2021 8:45:00 AM 15.5 59.9 0.113 6.87 1.89 10.36
8/31/2021 9:00:00 AM 15.51 59.918 0.113 6.88 1.75 10.36
8/31/2021 9:15:00 AM 15.52 59.936 0.113 6.87 1.76 10.35
8/31/2021 9:30:00 AM 15.54 59.972 0.113 6.86 1.95 10.35
8/31/2021 9:45:00 AM 15.57 60.026 0.113 6.84 1.73 10.34
8/31/2021 10:00:00 AM 15.6 60.08 0.113 6.83 1.8 10.34
8/31/2021 10:15:00 AM 15.63 60.134 0.113 6.84 1.79 10.33
8/31/2021 10:30:00 AM 15.66 60.188 0.113 6.84 1.73 10.32
8/31/2021 10:45:00 AM 15.69 60.242 0.113 6.86 1.78 10.31
8/31/2021 11:00:00 AM 15.73 60.314 0.113 6.85 2.13 10.31
8/31/2021 11:15:00 AM 15.77 60.386 0.113 6.88 1.83 10.3
8/31/2021 11:30:00 AM 15.82 60.476 0.113 6.87 1.8 10.28
8/31/2021 11:45:00 AM 15.85 60.53 0.113 6.9 1.84 10.28
8/31/2021 12:00:00 PM 15.9 60.62 0.112 6.89 1.64 10.26
8/31/2021 12:15:00 PM 15.94 60.692 0.112 6.9 1.77 10.25
8/31/2021 12:30:00 PM 16 60.8 0.112 6.92 1.78 10.24
8/31/2021 12:45:00 PM 16.04 60.872 0.112 6.9 1.83 10.22
8/31/2021 1:00:00 PM 16.08 60.944 0.112 6.9 1.67 10.21
8/31/2021 1:15:00 PM 16.13 61.034 0.112 6.9 1.82 10.21
8/31/2021 1:30:00 PM 16.18 61.124 0.112 6.91 1.71 10.2
8/31/2021 1:45:00 PM 16.21 61.178 0.112 6.88 1.8 10.19
8/31/2021 2:00:00 PM 16.26 61.268 0.112 6.9 1.72 10.17
8/31/2021 2:15:00 PM 16.3 61.34 0.112 6.89 1.87 10.16
8/31/2021 2:30:00 PM 16.31 61.358 0.112 6.88 1.69 10.16
8/31/2021 2:45:00 PM 16.35 61.43 0.112 6.89 1.83 10.15
8/31/2021 3:00:00 PM 16.37 61.466 0.112 6.89 1.78 10.15
8/31/2021 3:15:00 PM 16.38 61.484 0.112 6.86 1.9 10.14
8/31/2021 3:30:00 PM 16.38 61.484 0.112 6.89 1.81 10.14
8/31/2021 3:45:00 PM 16.39 61.502 0.112 6.89 1.76 10.13
8/31/2021 4:00:00 PM 16.39 61.502 0.112 6.86 1.76 10.13
8/31/2021 4:15:00 PM 16.39 61.502 0.112 6.86 1.78 10.13
8/31/2021 4:30:00 PM 16.39 61.502 0.112 6.89 1.75 10.13
8/31/2021 4:45:00 PM 16.39 61.502 0.112 6.89 1.77 10.13
8/31/2021 5:00:00 PM 16.38 61.484 0.113 6.88 1.74 10.13
8/31/2021 5:15:00 PM 16.37 61.466 0.113 6.85 1.68 10.13
8/31/2021 5:30:00 PM 16.36 61.448 0.113 6.86 1.83 10.13
8/31/2021 5:45:00 PM 16.33 61.394 0.113 6.86 1.68 10.14
8/31/2021 6:00:00 PM 16.3 61.34 0.113 6.88 1.79 10.14
8/31/2021 6:15:00 PM 16.27 61.286 0.113 6.88 1.73 10.15
8/31/2021 6:30:00 PM 16.24 61.232 0.113 6.87 1.74 10.16
8/31/2021 6:45:00 PM 16.21 61.178 0.113 6.85 1.77 10.16
8/31/2021 7:00:00 PM 16.19 61.142 0.113 6.83 1.94 10.17
8/31/2021 7:15:00 PM 16.16 61.088 0.113 6.84 1.69 10.17
8/31/2021 7:30:00 PM 16.14 61.052 0.113 6.85 1.7 10.17
8/31/2021 7:45:00 PM 16.12 61.016 0.113 6.87 1.69 10.18
8/31/2021 8:00:00 PM 16.1 60.98 0.113 6.87 1.69 10.18
8/31/2021 8:15:00 PM 16.08 60.944 0.113 6.85 1.73 10.19
8/31/2021 8:30:00 PM 16.06 60.908 0.113 6.88 1.79 10.19
8/31/2021 8:45:00 PM 16.04 60.872 0.113 6.87 1.67 10.19
8/31/2021 9:00:00 PM 16.02 60.836 0.113 6.89 1.76 10.2
8/31/2021 9:15:00 PM 16.01 60.818 0.113 6.88 1.67 10.2
8/31/2021 9:30:00 PM 15.99 60.782 0.113 6.88 1.6 10.2
8/31/2021 9:45:00 PM 15.98 60.764 0.113 6.85 1.65 10.21
8/31/2021 10:00:00 PM 15.96 60.728 0.113 6.85 1.63 10.21
8/31/2021 10:15:00 PM 15.94 60.692 0.113 6.87 1.61 10.21
8/31/2021 10:30:00 PM 15.93 60.674 0.113 6.87 1.52 10.22
8/31/2021 10:45:00 PM 15.91 60.638 0.113 6.85 1.66 10.22
8/31/2021 11:00:00 PM 15.9 60.62 0.113 6.85 1.65 10.23
8/31/2021 11:15:00 PM 15.88 60.584 0.113 6.86 1.64 10.23
8/31/2021 11:30:00 PM 15.86 60.548 0.113 6.85 1.58 10.24
8/31/2021 11:45:00 PM 15.85 60.53 0.113 6.88 1.6 10.23
9/1/2021 12:00:00 AM 15.83 60.494 0.113 6.87 1.56 10.24
9/1/2021 12:15:00 AM 15.81 60.458 0.113 6.87 1.58 10.25
9/1/2021 12:30:00 AM 15.8 60.44 0.113 6.85 1.6 10.25
9/1/2021 12:45:00 AM 15.79 60.422 0.113 6.83 1.54 10.25
9/1/2021 1:00:00 AM 15.78 60.404 0.113 6.85 1.6 10.25
9/1/2021 1:15:00 AM 15.76 60.368 0.113 6.85 1.67 10.25
9/1/2021 1:30:00 AM 15.76 60.368 0.113 6.84 1.61 10.25
9/1/2021 1:45:00 AM 15.75 60.35 0.113 6.85 1.69 10.26
9/1/2021 2:00:00 AM 15.74 60.332 0.113 6.83 1.68 10.26
9/1/2021 2:15:00 AM 15.73 60.314 0.113 6.83 1.73 10.26
9/1/2021 2:30:00 AM 15.72 60.296 0.113 6.84 1.83 10.26
9/1/2021 2:45:00 AM 15.72 60.296 0.112 6.82 1.75 10.26
9/1/2021 3:00:00 AM 15.72 60.296 0.112 6.83 1.91 10.25
9/1/2021 3:15:00 AM 15.72 60.296 0.111 6.83 1.96 10.26
9/1/2021 3:30:00 AM 15.72 60.296 0.111 6.83 2.13 10.26
9/1/2021 3:45:00 AM 15.73 60.314 0.111 6.86 2.16 10.25
9/1/2021 4:00:00 AM 15.73 60.314 0.11 6.88 2.34 10.26
9/1/2021 4:15:00 AM 15.72 60.296 0.11 6.88 2.2 10.26
9/1/2021 4:30:00 AM 15.72 60.296 0.11 6.86 2.7 10.26
9/1/2021 4:45:00 AM 15.71 60.278 0.111 6.89 2.87 10.25
9/1/2021 5:00:00 AM 15.71 60.278 0.113 6.92 3.49 10.26
9/1/2021 5:15:00 AM 15.71 60.278 0.116 6.95 4.29 10.27
9/1/2021 5:30:00 AM 15.7 60.26 0.119 6.97 5.5 10.27
9/1/2021 5:45:00 AM 15.69 60.242 0.123 7 6.34 10.28
9/1/2021 6:00:00 AM 15.69 60.242 0.125 7.05 11.8 10.28
9/1/2021 6:15:00 AM 15.68 60.224 0.126 7.07 7.27 10.29
9/1/2021 6:30:00 AM 15.67 60.206 0.126 7.07 7.62 10.29
9/1/2021 6:45:00 AM 15.66 60.188 0.127 7.08 7.37 10.29
9/1/2021 7:00:00 AM 15.65 60.17 0.126 7.12 7.56 10.3
9/1/2021 7:15:00 AM 15.64 60.152 0.125 7.15 6.7 10.3
9/1/2021 7:30:00 AM 15.63 60.134 0.125 7.15 6.41 10.3
9/1/2021 7:45:00 AM 15.63 60.134 0.124 7.13 6.57 10.31
9/1/2021 8:00:00 AM 15.62 60.116 0.124 7.15 5.91 10.31
9/1/2021 8:15:00 AM 15.61 60.098 0.124 7.14 5.58 10.32
9/1/2021 8:30:00 AM 15.6 60.08 0.125 7.16 5.2 10.31
9/1/2021 8:45:00 AM 15.6 60.08 0.127 7.15 5.61 10.32
9/1/2021 9:00:00 AM 15.59 60.062 0.128 7.15 6.01 10.32
9/1/2021 9:15:00 AM 15.58 60.044 0.129 7.15 6.76 10.32
9/1/2021 9:30:00 AM 15.58 60.044 0.129 7.17 7.29 10.32
9/1/2021 9:45:00 AM 15.57 60.026 0.129 7.19 7.57 10.32
9/1/2021 10:00:00 AM 15.57 60.026 0.129 7.2 7.66 10.33
9/1/2021 10:15:00 AM 15.57 60.026 0.129 7.19 7.61 10.33
9/1/2021 10:30:00 AM 15.57 60.026 0.128 7.2 7.64 10.34
9/1/2021 10:45:00 AM 15.57 60.026 0.128 7.16 7.89 10.33
9/1/2021 11:00:00 AM 15.57 60.026 0.127 7.2 8.55 10.33
9/1/2021 11:15:00 AM 15.57 60.026 0.127 7.2 8.09 10.34
9/1/2021 11:30:00 AM 15.57 60.026 0.127 7.18 7.85 10.34
9/1/2021 11:45:00 AM 15.57 60.026 0.127 7.2 7.49 10.34
9/1/2021 12:00:00 PM 15.57 60.026 0.127 7.17 7.41 10.34
9/1/2021 12:15:00 PM 15.57 60.026 0.127 7.19 7.23 10.34
9/1/2021 12:30:00 PM 15.57 60.026 0.127 7.19 6.61 10.34
9/1/2021 12:45:00 PM 15.57 60.026 0.127 7.18 6.37 10.34
9/1/2021 1:00:00 PM 15.57 60.026 0.127 7.18 6.51 10.34
9/1/2021 1:15:00 PM 15.57 60.026 0.126 7.19 6.22 10.34
9/1/2021 1:30:00 PM 15.56 60.008 0.126 7.15 6.33 10.34
9/1/2021 1:45:00 PM 15.55 59.99 0.126 7.17 6.18 10.33
9/1/2021 2:00:00 PM 15.55 59.99 0.126 7.16 6.24 10.34
9/1/2021 2:15:00 PM 15.54 59.972 0.127 7.19 6.28 10.34
9/1/2021 2:30:00 PM 15.53 59.954 0.127 7.15 6.94 10.34
9/1/2021 2:45:00 PM 15.53 59.954 0.128 7.19 8.3 10.35
9/1/2021 3:00:00 PM 15.54 59.972 0.129 7.15 11.48 10.34
9/1/2021 3:15:00 PM 15.56 60.008 0.13 7.15 15.09 10.34
9/1/2021 3:30:00 PM 15.59 60.062 0.132 7.14 22.21 10.32
9/1/2021 3:45:00 PM 15.62 60.116 0.135 7.16 28.75 10.32
9/1/2021 4:00:00 PM 15.65 60.17 0.135 7.16 27.37 10.31
9/1/2021 4:15:00 PM 15.69 60.242 0.135 7.18 25.24 10.31
9/1/2021 4:30:00 PM 15.72 60.296 0.132 7.15 28.31 10.3
9/1/2021 4:45:00 PM 15.75 60.35 0.129 7.17 28.93 10.3
9/1/2021 5:00:00 PM 15.76 60.368 0.127 7.15 21.65 10.3
9/1/2021 5:15:00 PM 15.76 60.368 0.125 7.16 19.09 10.3
9/1/2021 5:30:00 PM 15.75 60.35 0.123 7.14 16.49 10.3
9/1/2021 5:45:00 PM 15.74 60.332 0.122 7.12 14.6 10.31
9/1/2021 6:00:00 PM 15.72 60.296 0.12 7.11 13.68 10.32
9/1/2021 6:15:00 PM 15.71 60.278 0.119 7.1 13.32 10.32
9/1/2021 6:30:00 PM 15.7 60.26 0.118 7.07 13.33 10.32
9/1/2021 6:45:00 PM 15.69 60.242 0.118 7.07 11.95 10.33
9/1/2021 7:00:00 PM 15.68 60.224 0.117 7.05 11.96 10.33
9/1/2021 7:15:00 PM 15.67 60.206 0.118 7.05 11.64 10.34
9/1/2021 7:30:00 PM 15.66 60.188 0.118 7.06 11.16 10.34
9/1/2021 7:45:00 PM 15.65 60.17 0.119 7.06 10.81 10.34
9/1/2021 8:00:00 PM 15.64 60.152 0.119 7.05 10.55 10.35
9/1/2021 8:15:00 PM 15.62 60.116 0.12 7.06 10 10.36
9/1/2021 8:30:00 PM 15.61 60.098 0.12 7.04 9.59 10.36
9/1/2021 8:45:00 PM 15.59 60.062 0.12 7.08 9.33 10.37
9/1/2021 9:00:00 PM 15.57 60.026 0.12 7.07 9.06 10.37
9/1/2021 9:15:00 PM 15.54 59.972 0.121 7.07 9.1 10.38
9/1/2021 9:30:00 PM 15.51 59.918 0.121 7.08 8.34 10.39
9/1/2021 9:45:00 PM 15.48 59.864 0.121 7.06 8.22 10.39
9/1/2021 10:00:00 PM 15.45 59.81 0.121 7.09 8.09 10.4
9/1/2021 10:15:00 PM 15.41 59.738 0.121 7.07 8.03 10.41
9/1/2021 10:30:00 PM 15.38 59.684 0.121 7.07 7.74 10.41
9/1/2021 10:45:00 PM 15.34 59.612 0.121 7.07 7.42 10.41
9/1/2021 11:00:00 PM 15.3 59.54 0.122 7.07 7.41 10.43
9/1/2021 11:15:00 PM 15.26 59.468 0.122 7.07 6.95 10.44
9/1/2021 11:30:00 PM 15.22 59.396 0.122 7.08 6.96 10.45
9/1/2021 11:45:00 PM 15.17 59.306 0.122 7.08 7.04 10.46
9/2/2021 12:00:00 AM 15.12 59.216 0.122 7.08 6.72 10.48
9/2/2021 12:15:00 AM 15.07 59.126 0.122 7.09 6.33 10.49
9/2/2021 12:30:00 AM 15.03 59.054 0.122 7.08 6.1 10.5
9/2/2021 12:45:00 AM 14.99 58.982 0.122 7.1 6.32 10.52
9/2/2021 1:00:00 AM 14.94 58.892 0.122 7.09 5.92 10.53
9/2/2021 1:15:00 AM 14.9 58.82 0.122 7.1 5.9 10.54
9/2/2021 1:30:00 AM 14.87 58.766 0.122 7.08 5.49 10.55
9/2/2021 1:45:00 AM 14.84 58.712 0.122 7.08 5.54 10.55
9/2/2021 2:00:00 AM 14.8 58.64 0.122 7.1 5.3 10.55
9/2/2021 2:15:00 AM 14.76 58.568 0.122 7.08 5.31 10.56
9/2/2021 2:30:00 AM 14.73 58.514 0.122 7.08 5.13 10.57
9/2/2021 2:45:00 AM 14.69 58.442 0.122 7.1 5.01 10.58
9/2/2021 3:00:00 AM 14.65 58.37 0.122 7.08 5.05 10.59
9/2/2021 3:15:00 AM 14.62 58.316 0.122 7.09 5.11 10.6
9/2/2021 3:30:00 AM 14.59 58.262 0.122 7.1 5 10.61
9/2/2021 3:45:00 AM 14.56 58.208 0.122 7.1 4.85 10.61
9/2/2021 4:00:00 AM 14.54 58.172 0.122 7.08 4.65 10.62
9/2/2021 4:15:00 AM 14.51 58.118 0.122 7.09 4.71 10.63
9/2/2021 4:30:00 AM 14.49 58.082 0.122 7.08 4.48 10.64
9/2/2021 4:45:00 AM 14.46 58.028 0.122 7.08 4.45 10.64
9/2/2021 5:00:00 AM 14.43 57.974 0.122 7.09 4.56 10.66
9/2/2021 5:15:00 AM 14.39 57.902 0.121 7.08 4.55 10.66
9/2/2021 5:30:00 AM 14.35 57.83 0.121 7.09 4.25 10.68
9/2/2021 5:45:00 AM 14.32 57.776 0.121 7.08 4.52 10.69
9/2/2021 6:00:00 AM 14.28 57.704 0.121 7.07 4.45 10.7
9/2/2021 6:15:00 AM 14.24 57.632 0.121 7.08 4.87 10.71
9/2/2021 6:30:00 AM 14.2 57.56 0.121 7.07 4.24 10.71
9/2/2021 6:45:00 AM 14.16 57.488 0.121 7.08 4.65 10.71
9/2/2021 7:00:00 AM 14.13 57.434 0.121 7.07 4.44 10.72
9/2/2021 7:15:00 AM 14.09 57.362 0.12 7.08 3.97 10.74
9/2/2021 7:30:00 AM 14.07 57.326 0.12 7.08 4.21 10.74
9/2/2021 7:45:00 AM 14.05 57.29 0.12 7.09 3.97 10.75
9/2/2021 8:00:00 AM 14.04 57.272 0.12 7.08 4.04 10.76
9/2/2021 8:15:00 AM 14.04 57.272 0.12 7.06 3.84 10.76
9/2/2021 8:30:00 AM 14.06 57.308 0.119 7.05 3.95 10.75
9/2/2021 8:45:00 AM 14.08 57.344 0.119 7.07 4.3 10.75
9/2/2021 9:00:00 AM 14.11 57.398 0.119 7.08 3.95 10.75
9/2/2021 9:15:00 AM 14.14 57.452 0.119 7.08 4.02 10.74
9/2/2021 9:30:00 AM 14.18 57.524 0.119 7.07 3.88 10.74
9/2/2021 9:45:00 AM 14.21 57.578 0.119 7.06 3.81 10.74
9/2/2021 10:00:00 AM 14.23 57.614 0.119 7.08 3.59 10.73
9/2/2021 10:15:00 AM 14.26 57.668 0.118 7.08 3.8 10.73
9/2/2021 10:30:00 AM 14.29 57.722 0.118 7.06 3.74 10.72
9/2/2021 10:45:00 AM 14.33 57.794 0.118 7.08 4.01 10.71
9/2/2021 11:00:00 AM 14.37 57.866 0.118 7.07 3.72 10.7
9/2/2021 11:15:00 AM 14.4 57.92 0.118 7.08 3.65 10.7
9/2/2021 11:30:00 AM 14.47 58.046 0.118 7.09 3.74 10.68
9/2/2021 11:45:00 AM 14.54 58.172 0.118 7.06 3.57 10.66
9/2/2021 12:00:00 PM 14.63 58.334 0.118 7.08 3.48 10.63
9/2/2021 12:15:00 PM 14.7 58.46 0.118 7.07 3.8 10.61
9/2/2021 12:30:00 PM 14.76 58.568 0.117 7.09 3.66 10.6
9/2/2021 12:45:00 PM 14.81 58.658 0.117 7.09 3.6 10.59
9/2/2021 1:00:00 PM 14.87 58.766 0.117 7.06 3.5 10.58
9/2/2021 1:15:00 PM 14.92 58.856 0.117 7.08 3.58 10.57
9/2/2021 1:30:00 PM 14.96 58.928 0.117 7.08 3.6 10.56
9/2/2021 1:45:00 PM 15.01 59.018 0.117 7.09 3.37 10.55
9/2/2021 2:00:00 PM 15.06 59.108 0.117 7.08 3.46 10.53
9/2/2021 2:15:00 PM 15.1 59.18 0.117 7.05 3.37 10.52
9/2/2021 2:30:00 PM 15.12 59.216 0.117 7.08 3.22 10.51
9/2/2021 2:45:00 PM 15.14 59.252 0.116 7.06 3.38 10.5
9/2/2021 3:00:00 PM 15.17 59.306 0.116 7.07 3.37 10.5
9/2/2021 3:15:00 PM 15.18 59.324 0.116 7.07 3.18 10.5
9/2/2021 3:30:00 PM 15.18 59.324 0.116 7.07 3.65 10.49
9/2/2021 3:45:00 PM 15.17 59.306 0.116 7.07 3.53 10.49
9/2/2021 4:00:00 PM 15.16 59.288 0.116 7.05 3.29 10.5
9/2/2021 4:15:00 PM 15.16 59.288 0.116 7.07 3.39 10.5
9/2/2021 4:30:00 PM 15.14 59.252 0.116 7.04 3.37 10.5
9/2/2021 4:45:00 PM 15.12 59.216 0.116 7.06 3.18 10.52
9/2/2021 5:00:00 PM 15.08 59.144 0.116 7.06 3.11 10.52
9/2/2021 5:15:00 PM 15.05 59.09 0.116 7.05 3.25 10.53
9/2/2021 5:30:00 PM 15 59 0.116 7.06 3.04 10.54
9/2/2021 5:45:00 PM 14.96 58.928 0.116 7.05 3.11 10.55
9/2/2021 6:00:00 PM 14.93 58.874 0.116 7.05 3.02 10.55
9/2/2021 6:15:00 PM 14.9 58.82 0.116 7.04 3.04 10.56
9/2/2021 6:30:00 PM 14.86 58.748 0.116 7.05 2.94 10.57
9/2/2021 6:45:00 PM 14.82 58.676 0.115 7.03 3.92 10.58
9/2/2021 7:00:00 PM 14.78 58.604 0.115 7.04 3.02 10.58
9/2/2021 7:15:00 PM 14.73 58.514 0.115 7.03 3.1 10.6
9/2/2021 7:30:00 PM 14.68 58.424 0.115 7.04 2.82 10.61
9/2/2021 7:45:00 PM 14.62 58.316 0.115 7.04 2.98 10.63
9/2/2021 8:00:00 PM 14.55 58.19 0.115 7.05 2.81 10.66
9/2/2021 8:15:00 PM 14.48 58.064 0.115 7.05 2.96 10.68
9/2/2021 8:30:00 PM 14.42 57.956 0.115 7.05 2.78 10.7
9/2/2021 8:45:00 PM 14.36 57.848 0.114 7.02 2.78 10.72
9/2/2021 9:00:00 PM 14.3 57.74 0.114 7.04 2.9 10.73
9/2/2021 9:15:00 PM 14.24 57.632 0.114 7.03 2.61 10.74
9/2/2021 9:30:00 PM 14.18 57.524 0.114 7.05 2.65 10.75
9/2/2021 9:45:00 PM 14.12 57.416 0.114 7.05 2.7 10.76
9/2/2021 10:00:00 PM 14.07 57.326 0.114 7.02 2.58 10.78
9/2/2021 10:15:00 PM 14.02 57.236 0.113 7.03 2.59 10.79
9/2/2021 10:30:00 PM 13.97 57.146 0.113 7.04 2.73 10.81
9/2/2021 10:45:00 PM 13.92 57.056 0.113 7.01 2.67 10.82
9/2/2021 11:00:00 PM 13.87 56.966 0.113 7.03 2.69 10.83
9/2/2021 11:15:00 PM 13.83 56.894 0.112 7.01 2.55 10.85
9/2/2021 11:30:00 PM 13.78 56.804 0.112 7.04 2.52 10.86
9/2/2021 11:45:00 PM 13.74 56.732 0.112 7.01 2.47 10.87
9/3/2021 12:00:00 AM 13.7 56.66 0.112 7.01 2.38 10.88
9/3/2021 12:15:00 AM 13.66 56.588 0.112 7 2.51 10.89
9/3/2021 12:30:00 AM 13.62 56.516 0.111 7.02 2.47 10.9
9/3/2021 12:45:00 AM 13.57 56.426 0.111 7 2.54 10.91
9/3/2021 1:00:00 AM 13.53 56.354 0.111 7.02 2.48 10.91
9/3/2021 1:15:00 AM 13.49 56.282 0.111 7 2.41 10.92
9/3/2021 1:30:00 AM 13.45 56.21 0.11 7 2.52 10.93
9/3/2021 1:45:00 AM 13.41 56.138 0.11 7.02 2.53 10.94
9/3/2021 2:00:00 AM 13.37 56.066 0.11 7 2.37 10.95
9/3/2021 2:15:00 AM 13.33 55.994 0.11 7.01 2.48 10.96
9/3/2021 2:30:00 AM 13.29 55.922 0.11 6.99 2.33 10.98
9/3/2021 2:45:00 AM 13.25 55.85 0.109 7 2.29 10.99
9/3/2021 3:00:00 AM 13.21 55.778 0.109 7.01 2.38 11
9/3/2021 3:15:00 AM 13.17 55.706 0.109 6.99 2.35 11.02
9/3/2021 3:30:00 AM 13.13 55.634 0.109 6.99 2.23 11.03
9/3/2021 3:45:00 AM 13.09 55.562 0.108 7 2.51 11.05
9/3/2021 4:00:00 AM 13.05 55.49 0.108 6.99 2.51 11.05
9/3/2021 4:15:00 AM 13.02 55.436 0.108 7 2.37 11.06
9/3/2021 4:30:00 AM 12.99 55.382 0.108 6.99 2.59 11.07
9/3/2021 4:45:00 AM 12.97 55.346 0.107 6.98 2.32 11.07
9/3/2021 5:00:00 AM 12.94 55.292 0.107 6.98 2.23 11.07
9/3/2021 5:15:00 AM 12.91 55.238 0.107 7 2.35 11.08
9/3/2021 5:30:00 AM 12.88 55.184 0.106 6.99 2.15 11.09
9/3/2021 5:45:00 AM 12.85 55.13 0.106 6.99 2.27 11.09
9/3/2021 6:00:00 AM 12.82 55.076 0.106 7 2.21 11.1
9/3/2021 6:15:00 AM 12.79 55.022 0.106 6.98 2.13 11.11
9/3/2021 6:30:00 AM 12.76 54.968 0.105 7 2.36 11.12
9/3/2021 6:45:00 AM 12.75 54.95 0.105 6.99 2.37 11.12
9/3/2021 7:00:00 AM 12.72 54.896 0.105 6.97 2.28 11.13
9/3/2021 7:15:00 AM 12.7 54.86 0.105 6.97 2.25 11.14
9/3/2021 7:30:00 AM 12.69 54.842 0.104 6.99 2.34 11.15
9/3/2021 7:45:00 AM 12.68 54.824 0.104 6.96 2.21 11.15
9/3/2021 8:00:00 AM 12.68 54.824 0.104 6.97 2.11 11.15
9/3/2021 8:15:00 AM 12.69 54.842 0.103 6.98 2.32 11.15
9/3/2021 8:30:00 AM 12.71 54.878 0.103 6.95 2.31 11.15
9/3/2021 8:45:00 AM 12.74 54.932 0.103 6.98 2.23 11.14
9/3/2021 9:00:00 AM 12.78 55.004 0.102 6.95 2.26 11.13
9/3/2021 9:15:00 AM 12.83 55.094 0.102 6.98 2.25 11.11
9/3/2021 9:30:00 AM 12.88 55.184 0.102 6.98 2.19 11.1
9/3/2021 9:45:00 AM 12.93 55.274 0.102 6.95 2.39 11.1
9/3/2021 10:00:00 AM 12.97 55.346 0.101 6.97 2.23 11.09
9/3/2021 10:15:00 AM 13.02 55.436 0.101 6.97 2.24 11.08
9/3/2021 10:30:00 AM 13.07 55.526 0.101 6.98 2.37 11.07
9/3/2021 10:45:00 AM 13.13 55.634 0.101 6.97 2.39 11.05
9/3/2021 11:00:00 AM 13.2 55.76 0.1 6.97 2.23 11.04
9/3/2021 11:15:00 AM 13.27 55.886 0.1 6.95 2.31 11.02
9/3/2021 11:30:00 AM 13.33 55.994 0.1 6.95 2.26 11
9/3/2021 11:45:00 AM 13.38 56.084 0.099 6.95 2.35 10.99
9/3/2021 12:00:00 PM 13.44 56.192 0.099 6.95 2.26 10.97
9/3/2021 12:15:00 PM 13.49 56.282 0.099 6.96 2.29 10.96
9/3/2021 12:30:00 PM 13.52 56.336 0.099 6.96 2.3 10.94
9/3/2021 12:45:00 PM 13.59 56.462 0.099 6.94 2.21 10.94
9/3/2021 1:00:00 PM 13.66 56.588 0.098 6.96 2.21 10.92
9/3/2021 1:15:00 PM 13.73 56.714 0.098 6.94 2.28 10.9
9/3/2021 1:30:00 PM 13.82 56.876 0.098 6.93 2.33 10.87
9/3/2021 1:45:00 PM 13.87 56.966 0.098 6.93 2.25 10.86
9/3/2021 2:00:00 PM 13.93 57.074 0.098 6.93 2.38 10.85
9/3/2021 2:15:00 PM 13.92 57.056 0.097 6.95 2.21 10.83
9/3/2021 2:30:00 PM 13.95 57.11 0.097 6.94 2.19 10.83
9/3/2021 2:45:00 PM 13.95 57.11 0.097 6.92 2.18 10.83
9/3/2021 3:00:00 PM 13.97 57.146 0.097 6.94 2.24 10.82
9/3/2021 3:15:00 PM 13.99 57.182 0.097 6.94 2.15 10.81
9/3/2021 3:30:00 PM 14 57.2 0.097 6.93 2.3 10.81
9/3/2021 3:45:00 PM 14.04 57.272 0.096 6.92 2.15 10.8
9/3/2021 4:00:00 PM 14.07 57.326 0.096 6.92 2.21 10.79
9/3/2021 4:15:00 PM 14.1 57.38 0.096 6.94 2.13 10.78
9/3/2021 4:30:00 PM 14.13 57.434 0.096 6.9 2.37 10.77
9/3/2021 4:45:00 PM 14.13 57.434 0.096 6.91 2.09 10.77
9/3/2021 5:00:00 PM 14.12 57.416 0.096 6.9 2.41 10.77
9/3/2021 5:15:00 PM 14.11 57.398 0.096 6.93 2.18 10.77
9/3/2021 5:30:00 PM 14.09 57.362 0.096 6.9 2.11 10.78
9/3/2021 5:45:00 PM 14.08 57.344 0.095 6.91 2.26 10.78
9/3/2021 6:00:00 PM 14.06 57.308 0.095 6.89 2.11 10.78
9/3/2021 6:15:00 PM 14.04 57.272 0.095 6.89 2.17 10.79
9/3/2021 6:30:00 PM 14.02 57.236 0.095 6.9 2.25 10.79
9/3/2021 6:45:00 PM 14 57.2 0.095 6.88 2.22 10.81
9/3/2021 7:00:00 PM 13.97 57.146 0.095 6.88 2.28 10.81
9/3/2021 7:15:00 PM 13.94 57.092 0.095 6.89 2.17 10.82
9/3/2021 7:30:00 PM 13.92 57.056 0.095 6.9 2.21 10.83
9/3/2021 7:45:00 PM 13.89 57.002 0.095 6.9 2.18 10.84
9/3/2021 8:00:00 PM 13.87 56.966 0.094 6.89 2.45 10.84
9/3/2021 8:15:00 PM 13.83 56.894 0.094 6.89 2.12 10.86
9/3/2021 8:30:00 PM 13.79 56.822 0.094 6.89 2.22 10.86
9/3/2021 8:45:00 PM 13.76 56.768 0.094 6.9 2.1 10.87
9/3/2021 9:00:00 PM 13.73 56.714 0.094 6.9 2.22 10.88
9/3/2021 9:15:00 PM 13.69 56.642 0.093 6.9 2.13 10.9
9/3/2021 9:30:00 PM 13.65 56.57 0.093 6.87 2.11 10.91
9/3/2021 9:45:00 PM 13.6 56.48 0.093 6.87 2.09 10.92
9/3/2021 10:00:00 PM 13.56 56.408 0.093 6.89 2.28 10.93
9/3/2021 10:15:00 PM 13.52 56.336 0.093 6.87 2.14 10.93
9/3/2021 10:30:00 PM 13.49 56.282 0.093 6.89 2.08 10.93
9/3/2021 10:45:00 PM 13.45 56.21 0.093 6.87 2.02 10.94
9/3/2021 11:00:00 PM 13.42 56.156 0.092 6.86 2.05 10.95
9/3/2021 11:15:00 PM 13.4 56.12 0.092 6.88 2.09 10.96
9/3/2021 11:30:00 PM 13.37 56.066 0.092 6.87 1.97 10.97
9/3/2021 11:45:00 PM 13.35 56.03 0.092 6.86 2.11 10.98
9/4/2021 12:00:00 AM 13.33 55.994 0.092 6.86 2.05 10.98
9/4/2021 12:15:00 AM 13.31 55.958 0.091 6.87 2.09 10.98
9/4/2021 12:30:00 AM 13.29 55.922 0.091 6.87 2.09 10.99
9/4/2021 12:45:00 AM 13.27 55.886 0.091 6.87 1.95 11
9/4/2021 1:00:00 AM 13.25 55.85 0.091 6.86 1.91 11
9/4/2021 1:15:00 AM 13.23 55.814 0.091 6.86 2.06 11.01
9/4/2021 1:30:00 AM 13.21 55.778 0.091 6.87 2.12 11.01
9/4/2021 1:45:00 AM 13.19 55.742 0.09 6.87 2.11 11.02
9/4/2021 2:00:00 AM 13.16 55.688 0.09 6.86 1.99 11.03
9/4/2021 2:15:00 AM 13.13 55.634 0.09 6.87 1.98 11.03
9/4/2021 2:30:00 AM 13.09 55.562 0.09 6.83 2.1 11.04
9/4/2021 2:45:00 AM 13.06 55.508 0.09 6.85 1.94 11.04
9/4/2021 3:00:00 AM 13.03 55.454 0.09 6.85 2.06 11.05
9/4/2021 3:15:00 AM 13.01 55.418 0.09 6.85 1.97 11.06
9/4/2021 3:30:00 AM 13 55.4 0.089 6.86 2.22 11.06
9/4/2021 3:45:00 AM 12.98 55.364 0.089 6.82 2.08 11.07
9/4/2021 4:00:00 AM 12.97 55.346 0.089 6.85 2.12 11.07
9/4/2021 4:15:00 AM 12.96 55.328 0.089 6.84 2.16 11.08
9/4/2021 4:30:00 AM 12.95 55.31 0.089 6.85 1.95 11.07
9/4/2021 4:45:00 AM 12.93 55.274 0.089 6.85 2.14 11.07
9/4/2021 5:00:00 AM 12.92 55.256 0.089 6.83 2.02 11.08
9/4/2021 5:15:00 AM 12.91 55.238 0.089 6.84 1.97 11.08
9/4/2021 5:30:00 AM 12.89 55.202 0.089 6.84 1.99 11.08
9/4/2021 5:45:00 AM 12.87 55.166 0.089 6.84 1.95 11.09
9/4/2021 6:00:00 AM 12.85 55.13 0.088 6.84 1.87 11.09
9/4/2021 6:15:00 AM 12.84 55.112 0.088 6.84 1.89 11.1
9/4/2021 6:30:00 AM 12.82 55.076 0.088 6.81 1.95 11.1
9/4/2021 6:45:00 AM 12.81 55.058 0.088 6.84 1.93 11.1
9/4/2021 7:00:00 AM 12.8 55.04 0.088 6.83 2.14 11.11
9/4/2021 7:15:00 AM 12.79 55.022 0.088 6.8 1.95 11.11
9/4/2021 7:30:00 AM 12.79 55.022 0.088 6.84 2.04 11.11
9/4/2021 7:45:00 AM 12.78 55.004 0.088 6.83 2.03 11.12
9/4/2021 8:00:00 AM 12.79 55.022 0.088 6.83 1.97 11.12
9/4/2021 8:15:00 AM 12.8 55.04 0.087 6.83 2.22 11.11
9/4/2021 8:30:00 AM 12.81 55.058 0.087 6.83 1.98 11.11
9/4/2021 8:45:00 AM 12.83 55.094 0.087 6.82 2.02 11.1
9/4/2021 9:00:00 AM 12.85 55.13 0.087 6.81 2.02 11.1
9/4/2021 9:15:00 AM 12.89 55.202 0.087 6.8 1.98 11.08
9/4/2021 9:30:00 AM 12.93 55.274 0.087 6.82 2.11 11.08
9/4/2021 9:45:00 AM 12.97 55.346 0.087 6.81 1.95 11.08
9/4/2021 10:00:00 AM 13.01 55.418 0.087 6.81 2 11.07
9/4/2021 10:15:00 AM 13.05 55.49 0.087 6.81 2.1 11.07
9/4/2021 10:30:00 AM 13.09 55.562 0.087 6.81 1.98 11.05
9/4/2021 10:45:00 AM 13.16 55.688 0.087 6.8 1.97 11.03
9/4/2021 11:00:00 AM 13.24 55.832 0.087 6.84 2.05 11
9/4/2021 11:15:00 AM 13.31 55.958 0.086 6.82 2.07 10.98
9/4/2021 11:30:00 AM 13.39 56.102 0.086 6.82 2.01 10.96
9/4/2021 11:45:00 AM 13.49 56.282 0.086 6.83 2.09 10.93
9/4/2021 12:00:00 PM 13.59 56.462 0.086 6.82 1.91 10.9
9/4/2021 12:15:00 PM 13.69 56.642 0.086 6.82 2.33 10.88
9/4/2021 12:30:00 PM 13.78 56.804 0.086 6.81 2.09 10.86
9/4/2021 12:45:00 PM 13.85 56.93 0.086 6.79 2.15 10.84
9/4/2021 1:00:00 PM 13.9 57.02 0.086 6.82 2.02 10.82
9/4/2021 1:15:00 PM 13.96 57.128 0.086 6.82 2.13 10.8
9/4/2021 1:30:00 PM 14.02 57.236 0.086 6.82 2.05 10.78
9/4/2021 1:45:00 PM 14.08 57.344 0.086 6.82 2.07 10.76
9/4/2021 2:00:00 PM 14.14 57.452 0.086 6.82 2.15 10.74
9/4/2021 2:15:00 PM 14.19 57.542 0.086 6.8 2 10.73
9/4/2021 2:30:00 PM 14.23 57.614 0.086 6.79 2.13 10.72
9/4/2021 2:45:00 PM 14.26 57.668 0.086 6.81 2.01 10.71
9/4/2021 3:00:00 PM 14.28 57.704 0.086 6.79 2.07 10.7
9/4/2021 3:15:00 PM 14.3 57.74 0.086 6.81 2.04 10.7
9/4/2021 3:30:00 PM 14.3 57.74 0.086 6.79 2.12 10.7
9/4/2021 3:45:00 PM 14.31 57.758 0.086 6.78 2.08 10.69
9/4/2021 4:00:00 PM 14.32 57.776 0.086 6.8 2.13 10.7
9/4/2021 4:15:00 PM 14.31 57.758 0.086 6.76 2.12 10.69
9/4/2021 4:30:00 PM 14.31 57.758 0.086 6.79 2.17 10.69
9/4/2021 4:45:00 PM 14.31 57.758 0.086 6.77 1.99 10.68
9/4/2021 5:00:00 PM 14.3 57.74 0.086 6.77 2.2 10.69
9/4/2021 5:15:00 PM 14.28 57.704 0.086 6.75 2.07 10.69
9/4/2021 5:30:00 PM 14.26 57.668 0.086 6.76 2.08 10.7
9/4/2021 5:45:00 PM 14.23 57.614 0.086 6.72 2.24 10.7
9/4/2021 6:00:00 PM 14.2 57.56 0.086 6.76 2.09 10.7
9/4/2021 6:15:00 PM 14.19 57.542 0.086 6.72 2.06 10.7
9/4/2021 6:30:00 PM 14.17 57.506 0.086 6.75 2.07 10.71
9/4/2021 6:45:00 PM 14.16 57.488 0.086 6.72 2.21 10.71
9/4/2021 7:00:00 PM 14.14 57.452 0.086 6.74 2.05 10.71
9/4/2021 7:15:00 PM 14.1 57.38 0.086 6.78 2.24 10.73
9/4/2021 7:30:00 PM 14.06 57.308 0.086 6.79 2.1 10.73
9/4/2021 7:45:00 PM 14.03 57.254 0.086 6.78 2.23 10.74
9/4/2021 8:00:00 PM 13.99 57.182 0.086 6.77 2.26 10.75
9/4/2021 8:15:00 PM 13.95 57.11 0.086 6.78 2.14 10.75
9/4/2021 8:30:00 PM 13.92 57.056 0.086 6.75 2.13 10.77
9/4/2021 8:45:00 PM 13.89 57.002 0.086 6.76 2.24 10.77
9/4/2021 9:00:00 PM 13.86 56.948 0.086 6.74 2.06 10.79
9/4/2021 9:15:00 PM 13.84 56.912 0.086 6.76 2.08 10.79
9/4/2021 9:30:00 PM 13.82 56.876 0.085 6.75 2.47 10.79
9/4/2021 9:45:00 PM 13.79 56.822 0.085 6.77 2.12 10.8
9/4/2021 10:00:00 PM 13.77 56.786 0.085 6.75 2.07 10.81
9/4/2021 10:15:00 PM 13.74 56.732 0.085 6.75 1.99 10.81
9/4/2021 10:30:00 PM 13.72 56.696 0.085 6.75 2.03 10.82
9/4/2021 10:45:00 PM 13.69 56.642 0.085 6.75 1.98 10.83
9/4/2021 11:00:00 PM 13.66 56.588 0.085 6.77 2.1 10.83
9/4/2021 11:15:00 PM 13.63 56.534 0.085 6.77 2.08 10.83
9/4/2021 11:30:00 PM 13.61 56.498 0.085 6.77 2.19 10.84
9/4/2021 11:45:00 PM 13.59 56.462 0.085 6.74 2.03 10.85
9/5/2021 12:00:00 AM 13.57 56.426 0.085 6.77 1.95 10.85
9/5/2021 12:15:00 AM 13.55 56.39 0.085 6.76 1.94 10.85
9/5/2021 12:30:00 AM 13.54 56.372 0.084 6.73 2.05 10.85
9/5/2021 12:45:00 AM 13.53 56.354 0.084 6.76 2.13 10.85
9/5/2021 1:00:00 AM 13.52 56.336 0.084 6.73 1.99 10.85
9/5/2021 1:15:00 AM 13.51 56.318 0.084 6.75 2.96 10.86
9/5/2021 1:30:00 AM 13.5 56.3 0.084 6.73 1.91 10.85
9/5/2021 1:45:00 AM 13.49 56.282 0.084 6.76 1.97 10.85
9/5/2021 2:00:00 AM 13.48 56.264 0.084 6.72 1.94 10.85
9/5/2021 2:15:00 AM 13.47 56.246 0.084 6.76 1.88 10.86
9/5/2021 2:30:00 AM 13.46 56.228 0.084 6.73 1.93 10.85
9/5/2021 2:45:00 AM 13.46 56.228 0.084 6.73 1.91 10.85
9/5/2021 3:00:00 AM 13.46 56.228 0.084 6.74 1.96 10.85
9/5/2021 3:15:00 AM 13.45 56.21 0.084 6.72 1.94 10.85
9/5/2021 3:30:00 AM 13.45 56.21 0.084 6.72 1.97 10.85
9/5/2021 3:45:00 AM 13.45 56.21 0.084 6.74 1.93 10.85
9/5/2021 4:00:00 AM 13.46 56.228 0.083 6.71 2.37 10.85
9/5/2021 4:15:00 AM 13.46 56.228 0.083 6.74 2.69 10.85
9/5/2021 4:30:00 AM 13.46 56.228 0.083 6.75 2.81 10.85
9/5/2021 4:45:00 AM 13.46 56.228 0.083 6.71 2.78 10.85
9/5/2021 5:00:00 AM 13.46 56.228 0.083 6.74 2.79 10.85
9/5/2021 5:15:00 AM 13.46 56.228 0.083 6.73 2.96 10.85
9/5/2021 5:30:00 AM 13.45 56.21 0.083 6.78 2.83 10.85
9/5/2021 5:45:00 AM 13.46 56.228 0.083 6.78 3.23 10.85
9/5/2021 6:00:00 AM 13.46 56.228 0.084 6.79 3.33 10.85
9/5/2021 6:15:00 AM 13.46 56.228 0.085 6.8 3.26 10.84
9/5/2021 6:30:00 AM 13.47 56.246 0.086 6.82 3.95 10.84
9/5/2021 6:45:00 AM 13.47 56.246 0.087 6.81 3.97 10.84
9/5/2021 7:00:00 AM 13.47 56.246 0.088 6.85 4.14 10.84
9/5/2021 7:15:00 AM 13.48 56.264 0.088 6.84 4.41 10.84
9/5/2021 7:30:00 AM 13.48 56.264 0.089 6.88 4.07 10.83
9/5/2021 7:45:00 AM 13.49 56.282 0.09 6.89 3.98 10.84
9/5/2021 8:00:00 AM 13.49 56.282 0.091 6.89 4.13 10.83
9/5/2021 8:15:00 AM 13.5 56.3 0.091 6.9 3.97 10.83
9/5/2021 8:30:00 AM 13.51 56.318 0.091 6.91 3.97 10.83
9/5/2021 8:45:00 AM 13.52 56.336 0.092 6.88 3.88 10.83
9/5/2021 9:00:00 AM 13.53 56.354 0.092 6.88 3.74 10.84
9/5/2021 9:15:00 AM 13.54 56.372 0.092 6.91 3.68 10.82
9/5/2021 9:30:00 AM 13.56 56.408 0.093 6.91 3.85 10.82
9/5/2021 9:45:00 AM 13.58 56.444 0.093 6.89 3.57 10.83
9/5/2021 10:00:00 AM 13.61 56.498 0.092 6.91 3.73 10.81
9/5/2021 10:15:00 AM 13.64 56.552 0.092 6.88 3.76 10.81
9/5/2021 10:30:00 AM 13.66 56.588 0.092 6.91 3.63 10.81
9/5/2021 10:45:00 AM 13.7 56.66 0.092 6.93 3.82 10.81
9/5/2021 11:00:00 AM 13.74 56.732 0.092 6.91 3.69 10.79
9/5/2021 11:15:00 AM 13.76 56.768 0.092 6.95 3.68 10.79
9/5/2021 11:30:00 AM 13.79 56.822 0.092 6.94 3.77 10.78
9/5/2021 11:45:00 AM 13.82 56.876 0.092 6.94 3.55 10.78
9/5/2021 12:00:00 PM 13.87 56.966 0.092 6.94 3.75 10.75
9/5/2021 12:15:00 PM 13.92 57.056 0.092 6.89 3.88 10.75
9/5/2021 12:30:00 PM 13.95 57.11 0.092 6.9 3.67 10.74
9/5/2021 12:45:00 PM 13.99 57.182 0.091 6.91 3.6 10.73
9/5/2021 1:00:00 PM 14.01 57.218 0.091 6.9 3.72 10.72
9/5/2021 1:15:00 PM 14.03 57.254 0.091 6.87 3.49 10.71
9/5/2021 1:30:00 PM 14.02 57.236 0.091 6.87 3.51 10.71
9/5/2021 1:45:00 PM 14.03 57.254 0.091 6.9 3.66 10.71
9/5/2021 2:00:00 PM 14.05 57.29 0.091 6.9 3.49 10.7
9/5/2021 2:15:00 PM 14.08 57.344 0.091 6.9 3.47 10.7
9/5/2021 2:30:00 PM 14.12 57.416 0.091 6.88 3.56 10.68
9/5/2021 2:45:00 PM 14.17 57.506 0.091 6.89 3.42 10.68
9/5/2021 3:00:00 PM 14.22 57.596 0.091 6.9 3.56 10.67
9/5/2021 3:15:00 PM 14.27 57.686 0.091 6.89 3.51 10.66
9/5/2021 3:30:00 PM 14.3 57.74 0.091 6.89 3.44 10.65
9/5/2021 3:45:00 PM 14.31 57.758 0.091 6.89 3.38 10.65
9/5/2021 4:00:00 PM 14.35 57.83 0.091 6.88 3.49 10.64
9/5/2021 4:15:00 PM 14.36 57.848 0.09 6.89 3.28 10.64
9/5/2021 4:30:00 PM 14.37 57.866 0.09 6.88 3.43 10.62
9/5/2021 4:45:00 PM 14.37 57.866 0.09 6.87 3.65 10.63
9/5/2021 5:00:00 PM 14.36 57.848 0.09 6.85 3.74 10.63
9/5/2021 5:15:00 PM 14.34 57.812 0.09 6.87 3.6 10.64
9/5/2021 5:30:00 PM 14.33 57.794 0.091 6.86 3.6 10.64
9/5/2021 5:45:00 PM 14.33 57.794 0.091 6.85 3.84 10.64
9/5/2021 6:00:00 PM 14.33 57.794 0.091 6.86 3.8 10.64
9/5/2021 6:15:00 PM 14.33 57.794 0.092 6.87 4.12 10.63
9/5/2021 6:30:00 PM 14.32 57.776 0.093 6.88 4.08 10.64
9/5/2021 6:45:00 PM 14.3 57.74 0.093 6.89 3.62 10.64
9/5/2021 7:00:00 PM 14.28 57.704 0.094 6.85 3.73 10.65
9/5/2021 7:15:00 PM 14.26 57.668 0.094 6.87 3.5 10.65
9/5/2021 7:30:00 PM 14.24 57.632 0.094 6.86 3.69 10.65
9/5/2021 7:45:00 PM 14.23 57.614 0.094 6.84 3.8 10.66
9/5/2021 8:00:00 PM 14.22 57.596 0.094 6.87 4.1 10.66
9/5/2021 8:15:00 PM 14.22 57.596 0.093 6.87 2.97 10.67
9/5/2021 8:30:00 PM 14.21 57.578 0.093 6.87 2.84 10.67
9/5/2021 8:45:00 PM 14.2 57.56 0.093 6.88 2.9 10.67
9/5/2021 9:00:00 PM 14.18 57.524 0.093 6.84 2.9 10.68
9/5/2021 9:15:00 PM 14.16 57.488 0.093 6.85 3.15 10.68
9/5/2021 9:30:00 PM 14.13 57.434 0.093 6.89 3.11 10.69
9/5/2021 9:45:00 PM 14.11 57.398 0.093 6.87 3.12 10.69
9/5/2021 10:00:00 PM 14.09 57.362 0.093 6.87 3.17 10.7
9/5/2021 10:15:00 PM 14.06 57.308 0.093 6.87 2.79 10.7
9/5/2021 10:30:00 PM 14.03 57.254 0.092 6.9 2.69 10.71
9/5/2021 10:45:00 PM 14 57.2 0.092 6.89 2.76 10.73
9/5/2021 11:00:00 PM 13.97 57.146 0.092 6.87 2.84 10.74
9/5/2021 11:15:00 PM 13.94 57.092 0.092 6.9 2.66 10.75
9/5/2021 11:30:00 PM 13.9 57.02 0.092 6.9 2.84 10.76
9/5/2021 11:45:00 PM 13.87 56.966 0.092 6.86 2.91 10.76
9/6/2021 12:00:00 AM 13.84 56.912 0.092 6.88 2.82 10.78
9/6/2021 12:15:00 AM 13.81 56.858 0.092 6.88 2.76 10.78
9/6/2021 12:30:00 AM 13.78 56.804 0.092 6.89 2.71 10.8
9/6/2021 12:45:00 AM 13.75 56.75 0.092 6.88 2.5 10.8
9/6/2021 1:00:00 AM 13.73 56.714 0.092 6.89 2.51 10.81
9/6/2021 1:15:00 AM 13.7 56.66 0.091 6.89 2.53 10.82
9/6/2021 1:30:00 AM 13.68 56.624 0.091 6.88 2.47 10.82
9/6/2021 1:45:00 AM 13.66 56.588 0.091 6.88 2.53 10.83
9/6/2021 2:00:00 AM 13.63 56.534 0.091 6.87 2.61 10.83
9/6/2021 2:15:00 AM 13.61 56.498 0.091 6.88 2.38 10.84
9/6/2021 2:30:00 AM 13.59 56.462 0.091 6.88 2.57 10.83
9/6/2021 2:45:00 AM 13.57 56.426 0.091 6.85 2.49 10.84
9/6/2021 3:00:00 AM 13.55 56.39 0.091 6.87 2.35 10.84
9/6/2021 3:15:00 AM 13.53 56.354 0.091 6.87 2.45 10.84
9/6/2021 3:30:00 AM 13.51 56.318 0.091 6.86 2.52 10.85
9/6/2021 3:45:00 AM 13.49 56.282 0.091 6.87 2.42 10.85
9/6/2021 4:00:00 AM 13.47 56.246 0.091 6.85 3.38 10.85
9/6/2021 4:15:00 AM 13.45 56.21 0.091 6.84 3.31 10.86
9/6/2021 4:30:00 AM 13.44 56.192 0.091 6.87 2.46 10.86
9/6/2021 4:45:00 AM 13.44 56.192 0.09 6.88 2.53 10.86
9/6/2021 5:00:00 AM 13.43 56.174 0.09 6.88 2.62 10.86
9/6/2021 5:15:00 AM 13.42 56.156 0.09 6.85 2.7 10.87
9/6/2021 5:30:00 AM 13.41 56.138 0.09 6.87 2.41 10.87
9/6/2021 5:45:00 AM 13.4 56.12 0.09 6.88 2.58 10.87
9/6/2021 6:00:00 AM 13.38 56.084 0.09 6.88 2.72 10.88
9/6/2021 6:15:00 AM 13.36 56.048 0.09 6.86 2.54 10.89
9/6/2021 6:30:00 AM 13.34 56.012 0.09 6.85 2.58 10.89
9/6/2021 6:45:00 AM 13.32 55.976 0.09 6.87 2.51 10.9
9/6/2021 7:00:00 AM 13.31 55.958 0.09 6.86 2.44 10.91
9/6/2021 7:15:00 AM 13.29 55.922 0.09 6.83 2.5 10.91
9/6/2021 7:30:00 AM 13.28 55.904 0.09 6.87 2.45 10.92
9/6/2021 7:45:00 AM 13.27 55.886 0.09 6.84 2.44 10.92
9/6/2021 8:00:00 AM 13.28 55.904 0.09 6.86 2.55 10.92
9/6/2021 8:15:00 AM 13.29 55.922 0.09 6.86 2.42 10.92
9/6/2021 8:30:00 AM 13.31 55.958 0.09 6.82 2.46 10.91
9/6/2021 8:45:00 AM 13.33 55.994 0.09 6.82 2.37 10.91
9/6/2021 9:00:00 AM 13.35 56.03 0.09 6.86 2.34 10.9
9/6/2021 9:15:00 AM 13.38 56.084 0.09 6.85 2.44 10.89
9/6/2021 9:30:00 AM 13.41 56.138 0.09 6.84 2.41 10.88
9/6/2021 9:45:00 AM 13.45 56.21 0.09 6.85 2.37 10.88
9/6/2021 10:00:00 AM 13.47 56.246 0.09 6.86 2.45 10.87
9/6/2021 10:15:00 AM 13.49 56.282 0.09 6.87 2.44 10.87
9/6/2021 10:30:00 AM 13.53 56.354 0.09 6.84 2.34 10.87
9/6/2021 10:45:00 AM 13.58 56.444 0.09 6.82 2.55 10.86
9/6/2021 11:00:00 AM 13.65 56.57 0.09 6.86 2.57 10.84
9/6/2021 11:15:00 AM 13.72 56.696 0.09 6.87 2.56 10.83
9/6/2021 11:30:00 AM 13.81 56.858 0.09 6.82 2.53 10.81
9/6/2021 11:45:00 AM 13.9 57.02 0.09 6.86 2.65 10.78
9/6/2021 12:00:00 PM 14 57.2 0.09 6.86 2.51 10.74
9/6/2021 12:15:00 PM 14.1 57.38 0.09 6.82 2.58 10.72
9/6/2021 12:30:00 PM 14.2 57.56 0.09 6.87 2.56 10.7
9/6/2021 12:45:00 PM 14.28 57.704 0.09 6.86 2.65 10.68
9/6/2021 1:00:00 PM 14.34 57.812 0.09 6.82 2.61 10.67
9/6/2021 1:15:00 PM 14.38 57.884 0.09 6.83 2.61 10.66
9/6/2021 1:30:00 PM 14.4 57.92 0.09 6.86 2.64 10.65
9/6/2021 1:45:00 PM 14.41 57.938 0.09 6.86 2.77 10.64
9/6/2021 2:00:00 PM 14.43 57.974 0.09 6.82 2.64 10.64
9/6/2021 2:15:00 PM 14.45 58.01 0.09 6.85 2.64 10.63
9/6/2021 2:30:00 PM 14.47 58.046 0.09 6.86 2.51 10.63
9/6/2021 2:45:00 PM 14.5 58.1 0.09 6.85 2.38 10.63
9/6/2021 3:00:00 PM 14.5 58.1 0.09 6.84 2.56 10.62
9/6/2021 3:15:00 PM 14.51 58.118 0.09 6.85 2.51 10.62
9/6/2021 3:30:00 PM 14.54 58.172 0.09 6.85 2.53 10.61
9/6/2021 3:45:00 PM 14.56 58.208 0.09 6.82 2.54 10.6
9/6/2021 4:00:00 PM 14.56 58.208 0.09 6.84 2.95 10.59
9/6/2021 4:15:00 PM 14.56 58.208 0.09 6.85 2.41 10.6
9/6/2021 4:30:00 PM 14.53 58.154 0.09 6.82 2.6 10.6
9/6/2021 4:45:00 PM 14.51 58.118 0.09 6.84 2.47 10.61
9/6/2021 5:00:00 PM 14.49 58.082 0.09 6.83 2.78 10.62
9/6/2021 5:15:00 PM 14.46 58.028 0.09 6.81 2.49 10.62
9/6/2021 5:30:00 PM 14.43 57.974 0.09 6.81 2.93 10.63
9/6/2021 5:45:00 PM 14.4 57.92 0.09 6.82 2.56 10.64
9/6/2021 6:00:00 PM 14.36 57.848 0.09 6.83 2.47 10.65
9/6/2021 6:15:00 PM 14.33 57.794 0.09 6.81 2.43 10.66
9/6/2021 6:30:00 PM 14.3 57.74 0.09 6.82 2.56 10.67
9/6/2021 6:45:00 PM 14.26 57.668 0.09 6.81 2.48 10.68
9/6/2021 7:00:00 PM 14.23 57.614 0.09 6.82 2.66 10.69
9/6/2021 7:15:00 PM 14.18 57.524 0.091 6.8 2.61 10.69
9/6/2021 7:30:00 PM 14.14 57.452 0.091 6.83 2.52 10.7
9/6/2021 7:45:00 PM 14.1 57.38 0.09 6.79 2.64 10.71
9/6/2021 8:00:00 PM 14.05 57.29 0.09 6.79 2.51 10.72
9/6/2021 8:15:00 PM 13.99 57.182 0.09 6.83 2.66 10.74
9/6/2021 8:30:00 PM 13.94 57.092 0.091 6.8 2.52 10.75
9/6/2021 8:45:00 PM 13.89 57.002 0.091 6.82 2.49 10.78
9/6/2021 9:00:00 PM 13.83 56.894 0.091 6.82 2.47 10.79
9/6/2021 9:15:00 PM 13.79 56.822 0.091 6.81 2.51 10.8
9/6/2021 9:30:00 PM 13.74 56.732 0.09 6.79 2.61 10.82
9/6/2021 9:45:00 PM 13.7 56.66 0.09 6.79 2.57 10.83
9/6/2021 10:00:00 PM 13.65 56.57 0.09 6.81 2.4 10.85
9/6/2021 10:15:00 PM 13.61 56.498 0.09 6.79 2.38 10.86
9/6/2021 10:30:00 PM 13.57 56.426 0.09 6.78 2.38 10.86
9/6/2021 10:45:00 PM 13.53 56.354 0.09 6.83 2.38 10.87
9/6/2021 11:00:00 PM 13.48 56.264 0.09 6.83 2.36 10.88
9/6/2021 11:15:00 PM 13.44 56.192 0.09 6.79 2.38 10.9
9/6/2021 11:30:00 PM 13.4 56.12 0.09 6.8 2.34 10.91
9/6/2021 11:45:00 PM 13.36 56.048 0.09 6.82 2.44 10.92
9/7/2021 12:00:00 AM 13.32 55.976 0.09 6.79 2.4 10.93
9/7/2021 12:15:00 AM 13.28 55.904 0.09 6.82 2.28 10.94
9/7/2021 12:30:00 AM 13.24 55.832 0.09 6.82 2.32 10.95
9/7/2021 12:45:00 AM 13.2 55.76 0.09 6.82 2.58 10.97
9/7/2021 1:00:00 AM 13.17 55.706 0.09 6.82 2.76 10.97
9/7/2021 1:15:00 AM 13.13 55.634 0.09 6.82 2.29 10.99
9/7/2021 1:30:00 AM 13.08 55.544 0.09 6.79 2.59 11
9/7/2021 1:45:00 AM 13.05 55.49 0.09 6.81 2.44 11.01
9/7/2021 2:00:00 AM 13.01 55.418 0.09 6.81 2.24 11.02
9/7/2021 2:15:00 AM 12.98 55.364 0.09 6.8 2.39 11.02
9/7/2021 2:30:00 AM 12.94 55.292 0.09 6.8 2.32 11.03
9/7/2021 2:45:00 AM 12.9 55.22 0.09 6.81 2.33 11.04
9/7/2021 3:00:00 AM 12.87 55.166 0.09 6.79 2.39 11.04
9/7/2021 3:15:00 AM 12.84 55.112 0.09 6.77 2.28 11.05
9/7/2021 3:30:00 AM 12.81 55.058 0.09 6.79 2.39 11.06
9/7/2021 3:45:00 AM 12.77 54.986 0.09 6.77 3.21 11.07
9/7/2021 4:00:00 AM 12.74 54.932 0.09 6.8 2.48 11.07
9/7/2021 4:15:00 AM 12.71 54.878 0.09 6.81 2.46 11.09
9/7/2021 4:30:00 AM 12.67 54.806 0.09 6.8 2.29 11.1
9/7/2021 4:45:00 AM 12.64 54.752 0.09 6.8 2.32 11.11
9/7/2021 5:00:00 AM 12.61 54.698 0.09 6.8 2.39 11.12
9/7/2021 5:15:00 AM 12.58 54.644 0.09 6.78 2.34 11.13
9/7/2021 5:30:00 AM 12.56 54.608 0.09 6.8 2.32 11.14
9/7/2021 5:45:00 AM 12.53 54.554 0.09 6.77 2.34 11.14
9/7/2021 6:00:00 AM 12.51 54.518 0.09 6.8 2.33 11.15
9/7/2021 6:15:00 AM 12.48 54.464 0.09 6.79 2.31 11.15
9/7/2021 6:30:00 AM 12.46 54.428 0.09 6.78 2.36 11.16
9/7/2021 6:45:00 AM 12.44 54.392 0.09 6.79 2.39 11.17
9/7/2021 7:00:00 AM 12.42 54.356 0.09 6.77 2.45 11.17
9/7/2021 7:15:00 AM 12.41 54.338 0.09 6.78 2.34 11.18
9/7/2021 7:30:00 AM 12.39 54.302 0.09 6.79 2.49 11.18
9/7/2021 7:45:00 AM 12.39 54.302 0.09 6.79 2.41 11.18
9/7/2021 8:00:00 AM 12.39 54.302 0.09 6.79 2.42 11.19
9/7/2021 8:15:00 AM 12.4 54.32 0.09 6.78 2.38 11.19
9/7/2021 8:30:00 AM 12.41 54.338 0.09 6.79 2.39 11.18
9/7/2021 8:45:00 AM 12.44 54.392 0.09 6.79 2.41 11.17
9/7/2021 9:00:00 AM 12.47 54.446 0.09 6.75 2.39 11.17
9/7/2021 9:15:00 AM 12.52 54.536 0.09 6.79 2.3 11.15
9/7/2021 9:30:00 AM 12.57 54.626 0.09 6.77 2.28 11.14
9/7/2021 9:45:00 AM 12.62 54.716 0.09 6.74 2.31 11.13
9/7/2021 10:00:00 AM 12.68 54.824 0.09 6.75 2.45 11.11
9/7/2021 10:15:00 AM 12.74 54.932 0.09 6.77 2.47 11.09
9/7/2021 10:30:00 AM 12.82 55.076 0.09 6.78 2.27 11.07
9/7/2021 10:45:00 AM 12.89 55.202 0.09 6.78 2.3 11.05
9/7/2021 11:00:00 AM 12.98 55.364 0.09 6.78 2.36 11.04
9/7/2021 11:15:00 AM 13.07 55.526 0.09 6.77 2.39 11.02
9/7/2021 11:30:00 AM 13.17 55.706 0.09 6.78 2.36 10.99
9/7/2021 11:45:00 AM 13.28 55.904 0.09 6.74 2.42 10.96
9/7/2021 12:00:00 PM 13.41 56.138 0.09 6.77 2.35 10.91
9/7/2021 12:30:00 PM 13.67 56.606 0.09 6.79 2.45 10.85

These are provisional data and have not been subject to a quality assurance process, but rather are the raw data reported by the instrument.
H: value is above sensor operating range
L: value is below sensor operating range
Offline: station is not reporting data
NC: parameter is not collected at site

Data Availability & Limitations

Uncertainty and potential for error can be associated with environmental monitoring data. Provisional data have not been subject to a quality assurance process, but rather are the raw data reported by the instrument. Data users are cautioned to consider carefully the provisional nature of the information before using it for decisions that concern personal or public safety or the conduct of business that involves substantial monetary or operational consequences.

Approved data are currently available by request by emailing: srbc@srbc.net. Approved data have been subject to a quality assurance process to correct for equipment or fouling drift. Data recorded during equipment malfunctions have been removed.

View Historical Stations that have been discontinued.